<?xml version="1.0" encoding="UTF-8" standalone="no" ?>
<gpx xmlns="http://www.topografix.com/GPX/1/1" xmlns:xsi="http://www.w3.org/2001/XMLSchema-instance" xsi:schemaLocation="http://www.topografix.com/GPX/1/1 http://www.topografix.com/GPX/1/1/gpx.xsd" version="1.1" creator="VisuGPX - https://www.visugpx.com">
  <metadata>
    <name>Terre et Mer Vendeen</name>
    <desc><![CDATA[Super!
Entre Saint-Jean-de-Monts, Saint-Gilles-Croix-de-Vie et le Perrier, l'aller le long de la mer, foret et dune, la corniche vendeenne (Magnifique) et le retour au travers du Marais Breton. que du bonheur ]]></desc>
  </metadata>
  <trk>
    <name><![CDATA[Terre et mer vendéen 🏕🏖☀☀]]></name>
    <trkseg>
      <trkpt lat="46.77455" lon="-2.04594">
        <ele>2</ele>
        <time>2018-07-25T06:10:09Z</time>
      </trkpt>
      <trkpt lat="46.77454" lon="-2.04595">
        <ele>2</ele>
        <time>2018-07-25T06:10:12Z</time>
      </trkpt>
      <trkpt lat="46.77453" lon="-2.04602">
        <ele>2</ele>
        <time>2018-07-25T06:10:15Z</time>
      </trkpt>
      <trkpt lat="46.77449" lon="-2.04621">
        <ele>2.1</ele>
        <time>2018-07-25T06:10:20Z</time>
      </trkpt>
      <trkpt lat="46.77439" lon="-2.04643">
        <ele>2.3</ele>
        <time>2018-07-25T06:10:25Z</time>
      </trkpt>
      <trkpt lat="46.77428" lon="-2.04667">
        <ele>2.4</ele>
        <time>2018-07-25T06:10:30Z</time>
      </trkpt>
      <trkpt lat="46.77416" lon="-2.04689">
        <ele>2.5</ele>
        <time>2018-07-25T06:10:35Z</time>
      </trkpt>
      <trkpt lat="46.77404" lon="-2.04713">
        <ele>2.7</ele>
        <time>2018-07-25T06:10:40Z</time>
      </trkpt>
      <trkpt lat="46.77394" lon="-2.04737">
        <ele>3</ele>
        <time>2018-07-25T06:10:45Z</time>
      </trkpt>
      <trkpt lat="46.77408" lon="-2.04759">
        <ele>2.8</ele>
        <time>2018-07-25T06:10:50Z</time>
      </trkpt>
      <trkpt lat="46.77429" lon="-2.04781">
        <ele>2.7</ele>
        <time>2018-07-25T06:10:55Z</time>
      </trkpt>
      <trkpt lat="46.77448" lon="-2.04806">
        <ele>2.4</ele>
        <time>2018-07-25T06:11:00Z</time>
      </trkpt>
      <trkpt lat="46.77467" lon="-2.04829">
        <ele>2.3</ele>
        <time>2018-07-25T06:11:05Z</time>
      </trkpt>
      <trkpt lat="46.77482" lon="-2.04851">
        <ele>2.1</ele>
        <time>2018-07-25T06:11:10Z</time>
      </trkpt>
      <trkpt lat="46.77494" lon="-2.04866">
        <ele>2</ele>
        <time>2018-07-25T06:11:14Z</time>
      </trkpt>
      <trkpt lat="46.77486" lon="-2.04897">
        <ele>2.3</ele>
        <time>2018-07-25T06:11:19Z</time>
      </trkpt>
      <trkpt lat="46.77471" lon="-2.04927">
        <ele>2.7</ele>
        <time>2018-07-25T06:11:24Z</time>
      </trkpt>
      <trkpt lat="46.77456" lon="-2.04961">
        <ele>3</ele>
        <time>2018-07-25T06:11:29Z</time>
      </trkpt>
      <trkpt lat="46.77448" lon="-2.04995">
        <ele>3</ele>
        <time>2018-07-25T06:11:34Z</time>
      </trkpt>
      <trkpt lat="46.77432" lon="-2.05021">
        <ele>3</ele>
        <time>2018-07-25T06:11:39Z</time>
      </trkpt>
      <trkpt lat="46.77414" lon="-2.0505">
        <ele>2.9</ele>
        <time>2018-07-25T06:11:44Z</time>
      </trkpt>
      <trkpt lat="46.77398" lon="-2.05083">
        <ele>2.8</ele>
        <time>2018-07-25T06:11:49Z</time>
      </trkpt>
      <trkpt lat="46.77383" lon="-2.05118">
        <ele>2.9</ele>
        <time>2018-07-25T06:11:54Z</time>
      </trkpt>
      <trkpt lat="46.77366" lon="-2.05152">
        <ele>4.3</ele>
        <time>2018-07-25T06:11:59Z</time>
      </trkpt>
      <trkpt lat="46.7735" lon="-2.05186">
        <ele>5.2</ele>
        <time>2018-07-25T06:12:04Z</time>
      </trkpt>
      <trkpt lat="46.77336" lon="-2.05221">
        <ele>5.6</ele>
        <time>2018-07-25T06:12:09Z</time>
      </trkpt>
      <trkpt lat="46.77319" lon="-2.05255">
        <ele>6</ele>
        <time>2018-07-25T06:12:14Z</time>
      </trkpt>
      <trkpt lat="46.77303" lon="-2.05289">
        <ele>6.8</ele>
        <time>2018-07-25T06:12:19Z</time>
      </trkpt>
      <trkpt lat="46.77288" lon="-2.0532">
        <ele>7</ele>
        <time>2018-07-25T06:12:24Z</time>
      </trkpt>
      <trkpt lat="46.77274" lon="-2.05355">
        <ele>7</ele>
        <time>2018-07-25T06:12:29Z</time>
      </trkpt>
      <trkpt lat="46.77259" lon="-2.05386">
        <ele>6.9</ele>
        <time>2018-07-25T06:12:34Z</time>
      </trkpt>
      <trkpt lat="46.77252" lon="-2.05418">
        <ele>1</ele>
        <time>2018-07-25T06:12:39Z</time>
      </trkpt>
      <trkpt lat="46.77234" lon="-2.05409">
        <ele>1</ele>
        <time>2018-07-25T06:12:44Z</time>
      </trkpt>
      <trkpt lat="46.77214" lon="-2.05386">
        <ele>1</ele>
        <time>2018-07-25T06:12:49Z</time>
      </trkpt>
      <trkpt lat="46.77194" lon="-2.05357">
        <ele>1.7</ele>
        <time>2018-07-25T06:12:54Z</time>
      </trkpt>
      <trkpt lat="46.77174" lon="-2.05325">
        <ele>5</ele>
        <time>2018-07-25T06:12:59Z</time>
      </trkpt>
      <trkpt lat="46.77155" lon="-2.05294">
        <ele>9</ele>
        <time>2018-07-25T06:13:04Z</time>
      </trkpt>
      <trkpt lat="46.77135" lon="-2.05273">
        <ele>7</ele>
        <time>2018-07-25T06:13:09Z</time>
      </trkpt>
      <trkpt lat="46.77114" lon="-2.05248">
        <ele>7</ele>
        <time>2018-07-25T06:13:14Z</time>
      </trkpt>
      <trkpt lat="46.77094" lon="-2.05218">
        <ele>4.5</ele>
        <time>2018-07-25T06:13:19Z</time>
      </trkpt>
      <trkpt lat="46.77079" lon="-2.05184">
        <ele>2</ele>
        <time>2018-07-25T06:13:24Z</time>
      </trkpt>
      <trkpt lat="46.77078" lon="-2.05148">
        <ele>5.4</ele>
        <time>2018-07-25T06:13:29Z</time>
      </trkpt>
      <trkpt lat="46.77095" lon="-2.05114">
        <ele>8.2</ele>
        <time>2018-07-25T06:13:34Z</time>
      </trkpt>
      <trkpt lat="46.77114" lon="-2.0507">
        <ele>6.9</ele>
        <time>2018-07-25T06:13:39Z</time>
      </trkpt>
      <trkpt lat="46.77133" lon="-2.05019">
        <ele>5.4</ele>
        <time>2018-07-25T06:13:44Z</time>
      </trkpt>
      <trkpt lat="46.77149" lon="-2.04965">
        <ele>4.1</ele>
        <time>2018-07-25T06:13:49Z</time>
      </trkpt>
      <trkpt lat="46.7715" lon="-2.04915">
        <ele>3.6</ele>
        <time>2018-07-25T06:13:54Z</time>
      </trkpt>
      <trkpt lat="46.77136" lon="-2.04863">
        <ele>4</ele>
        <time>2018-07-25T06:13:59Z</time>
      </trkpt>
      <trkpt lat="46.77114" lon="-2.04817">
        <ele>3.5</ele>
        <time>2018-07-25T06:14:04Z</time>
      </trkpt>
      <trkpt lat="46.77093" lon="-2.04768">
        <ele>3.3</ele>
        <time>2018-07-25T06:14:09Z</time>
      </trkpt>
      <trkpt lat="46.77076" lon="-2.04721">
        <ele>3.4</ele>
        <time>2018-07-25T06:14:14Z</time>
      </trkpt>
      <trkpt lat="46.77058" lon="-2.04674">
        <ele>3.5</ele>
        <time>2018-07-25T06:14:19Z</time>
      </trkpt>
      <trkpt lat="46.77037" lon="-2.04629">
        <ele>3.6</ele>
        <time>2018-07-25T06:14:24Z</time>
      </trkpt>
      <trkpt lat="46.77011" lon="-2.04586">
        <ele>3.8</ele>
        <time>2018-07-25T06:14:29Z</time>
      </trkpt>
      <trkpt lat="46.76984" lon="-2.04545">
        <ele>3.9</ele>
        <time>2018-07-25T06:14:34Z</time>
      </trkpt>
      <trkpt lat="46.76955" lon="-2.04502">
        <ele>4.2</ele>
        <time>2018-07-25T06:14:39Z</time>
      </trkpt>
      <trkpt lat="46.76926" lon="-2.04459">
        <ele>4.5</ele>
        <time>2018-07-25T06:14:44Z</time>
      </trkpt>
      <trkpt lat="46.76898" lon="-2.04417">
        <ele>4.8</ele>
        <time>2018-07-25T06:14:49Z</time>
      </trkpt>
      <trkpt lat="46.76866" lon="-2.04381">
        <ele>5.2</ele>
        <time>2018-07-25T06:14:54Z</time>
      </trkpt>
      <trkpt lat="46.76833" lon="-2.04349">
        <ele>5.4</ele>
        <time>2018-07-25T06:14:59Z</time>
      </trkpt>
      <trkpt lat="46.76801" lon="-2.04317">
        <ele>5.8</ele>
        <time>2018-07-25T06:15:04Z</time>
      </trkpt>
      <trkpt lat="46.76768" lon="-2.04283">
        <ele>6</ele>
        <time>2018-07-25T06:15:09Z</time>
      </trkpt>
      <trkpt lat="46.76739" lon="-2.04246">
        <ele>6.3</ele>
        <time>2018-07-25T06:15:14Z</time>
      </trkpt>
      <trkpt lat="46.76715" lon="-2.04201">
        <ele>6.5</ele>
        <time>2018-07-25T06:15:19Z</time>
      </trkpt>
      <trkpt lat="46.76694" lon="-2.04149">
        <ele>6.5</ele>
        <time>2018-07-25T06:15:24Z</time>
      </trkpt>
      <trkpt lat="46.76674" lon="-2.04095">
        <ele>6.7</ele>
        <time>2018-07-25T06:15:29Z</time>
      </trkpt>
      <trkpt lat="46.76654" lon="-2.04042">
        <ele>6.9</ele>
        <time>2018-07-25T06:15:34Z</time>
      </trkpt>
      <trkpt lat="46.76635" lon="-2.03991">
        <ele>7.1</ele>
        <time>2018-07-25T06:15:39Z</time>
      </trkpt>
      <trkpt lat="46.76623" lon="-2.03941">
        <ele>7.6</ele>
        <time>2018-07-25T06:15:44Z</time>
      </trkpt>
      <trkpt lat="46.76618" lon="-2.0389">
        <ele>8.4</ele>
        <time>2018-07-25T06:15:49Z</time>
      </trkpt>
      <trkpt lat="46.76616" lon="-2.03836">
        <ele>9.6</ele>
        <time>2018-07-25T06:15:54Z</time>
      </trkpt>
      <trkpt lat="46.76614" lon="-2.03783">
        <ele>11.1</ele>
        <time>2018-07-25T06:15:59Z</time>
      </trkpt>
      <trkpt lat="46.76612" lon="-2.03732">
        <ele>12.1</ele>
        <time>2018-07-25T06:16:04Z</time>
      </trkpt>
      <trkpt lat="46.76606" lon="-2.03679">
        <ele>12.8</ele>
        <time>2018-07-25T06:16:09Z</time>
      </trkpt>
      <trkpt lat="46.76592" lon="-2.03626">
        <ele>11.9</ele>
        <time>2018-07-25T06:16:14Z</time>
      </trkpt>
      <trkpt lat="46.76578" lon="-2.03574">
        <ele>10.6</ele>
        <time>2018-07-25T06:16:19Z</time>
      </trkpt>
      <trkpt lat="46.76559" lon="-2.03522">
        <ele>10</ele>
        <time>2018-07-25T06:16:24Z</time>
      </trkpt>
      <trkpt lat="46.76534" lon="-2.03471">
        <ele>9.4</ele>
        <time>2018-07-25T06:16:29Z</time>
      </trkpt>
      <trkpt lat="46.76507" lon="-2.0342">
        <ele>8</ele>
        <time>2018-07-25T06:16:34Z</time>
      </trkpt>
      <trkpt lat="46.76488" lon="-2.03362">
        <ele>9</ele>
        <time>2018-07-25T06:16:39Z</time>
      </trkpt>
      <trkpt lat="46.76469" lon="-2.03307">
        <ele>9.1</ele>
        <time>2018-07-25T06:16:44Z</time>
      </trkpt>
      <trkpt lat="46.76446" lon="-2.03259">
        <ele>9.3</ele>
        <time>2018-07-25T06:16:49Z</time>
      </trkpt>
      <trkpt lat="46.76418" lon="-2.03206">
        <ele>9.5</ele>
        <time>2018-07-25T06:16:55Z</time>
      </trkpt>
      <trkpt lat="46.76398" lon="-2.03168">
        <ele>9.7</ele>
        <time>2018-07-25T06:16:59Z</time>
      </trkpt>
      <trkpt lat="46.76381" lon="-2.03117">
        <ele>9.9</ele>
        <time>2018-07-25T06:17:04Z</time>
      </trkpt>
      <trkpt lat="46.76378" lon="-2.0305">
        <ele>10.2</ele>
        <time>2018-07-25T06:17:10Z</time>
      </trkpt>
      <trkpt lat="46.76374" lon="-2.03002">
        <ele>10.4</ele>
        <time>2018-07-25T06:17:14Z</time>
      </trkpt>
      <trkpt lat="46.7634" lon="-2.02909">
        <ele>11.3</ele>
        <time>2018-07-25T06:17:23Z</time>
      </trkpt>
      <trkpt lat="46.76334" lon="-2.02902">
        <ele>11.3</ele>
        <time>2018-07-25T06:17:24Z</time>
      </trkpt>
      <trkpt lat="46.76265" lon="-2.02851">
        <ele>11.1</ele>
        <time>2018-07-25T06:17:33Z</time>
      </trkpt>
      <trkpt lat="46.76258" lon="-2.02843">
        <ele>11.1</ele>
        <time>2018-07-25T06:17:34Z</time>
      </trkpt>
      <trkpt lat="46.76226" lon="-2.02805">
        <ele>11</ele>
        <time>2018-07-25T06:17:39Z</time>
      </trkpt>
      <trkpt lat="46.76191" lon="-2.02772">
        <ele>11</ele>
        <time>2018-07-25T06:17:44Z</time>
      </trkpt>
      <trkpt lat="46.76154" lon="-2.02744">
        <ele>11</ele>
        <time>2018-07-25T06:17:49Z</time>
      </trkpt>
      <trkpt lat="46.76116" lon="-2.02711">
        <ele>11</ele>
        <time>2018-07-25T06:17:54Z</time>
      </trkpt>
      <trkpt lat="46.76077" lon="-2.0268">
        <ele>8</ele>
        <time>2018-07-25T06:17:59Z</time>
      </trkpt>
      <trkpt lat="46.76042" lon="-2.0264">
        <ele>6.9</ele>
        <time>2018-07-25T06:18:04Z</time>
      </trkpt>
      <trkpt lat="46.76012" lon="-2.02599">
        <ele>6.1</ele>
        <time>2018-07-25T06:18:09Z</time>
      </trkpt>
      <trkpt lat="46.75984" lon="-2.02565">
        <ele>6.7</ele>
        <time>2018-07-25T06:18:14Z</time>
      </trkpt>
      <trkpt lat="46.75959" lon="-2.02534">
        <ele>7</ele>
        <time>2018-07-25T06:18:19Z</time>
      </trkpt>
      <trkpt lat="46.75921" lon="-2.02508">
        <ele>6.7</ele>
        <time>2018-07-25T06:18:24Z</time>
      </trkpt>
      <trkpt lat="46.75877" lon="-2.0249">
        <ele>6.2</ele>
        <time>2018-07-25T06:18:29Z</time>
      </trkpt>
      <trkpt lat="46.75833" lon="-2.0248">
        <ele>5.4</ele>
        <time>2018-07-25T06:18:34Z</time>
      </trkpt>
      <trkpt lat="46.75794" lon="-2.02484">
        <ele>5</ele>
        <time>2018-07-25T06:18:39Z</time>
      </trkpt>
      <trkpt lat="46.75759" lon="-2.0247">
        <ele>5</ele>
        <time>2018-07-25T06:18:44Z</time>
      </trkpt>
      <trkpt lat="46.7572" lon="-2.0245">
        <ele>5</ele>
        <time>2018-07-25T06:18:49Z</time>
      </trkpt>
      <trkpt lat="46.75687" lon="-2.02408">
        <ele>4.1</ele>
        <time>2018-07-25T06:18:54Z</time>
      </trkpt>
      <trkpt lat="46.75652" lon="-2.02364">
        <ele>2.5</ele>
        <time>2018-07-25T06:18:59Z</time>
      </trkpt>
      <trkpt lat="46.75613" lon="-2.02327">
        <ele>2.2</ele>
        <time>2018-07-25T06:19:04Z</time>
      </trkpt>
      <trkpt lat="46.75573" lon="-2.02296">
        <ele>2.5</ele>
        <time>2018-07-25T06:19:09Z</time>
      </trkpt>
      <trkpt lat="46.75535" lon="-2.02265">
        <ele>2.7</ele>
        <time>2018-07-25T06:19:14Z</time>
      </trkpt>
      <trkpt lat="46.75503" lon="-2.02224">
        <ele>3.1</ele>
        <time>2018-07-25T06:19:19Z</time>
      </trkpt>
      <trkpt lat="46.75485" lon="-2.02167">
        <ele>3.5</ele>
        <time>2018-07-25T06:19:24Z</time>
      </trkpt>
      <trkpt lat="46.75463" lon="-2.02114">
        <ele>4</ele>
        <time>2018-07-25T06:19:29Z</time>
      </trkpt>
      <trkpt lat="46.75433" lon="-2.02067">
        <ele>4.2</ele>
        <time>2018-07-25T06:19:34Z</time>
      </trkpt>
      <trkpt lat="46.754" lon="-2.02027">
        <ele>4.4</ele>
        <time>2018-07-25T06:19:39Z</time>
      </trkpt>
      <trkpt lat="46.75367" lon="-2.01987">
        <ele>4.6</ele>
        <time>2018-07-25T06:19:44Z</time>
      </trkpt>
      <trkpt lat="46.75338" lon="-2.01943">
        <ele>4.7</ele>
        <time>2018-07-25T06:19:49Z</time>
      </trkpt>
      <trkpt lat="46.75309" lon="-2.01898">
        <ele>4.8</ele>
        <time>2018-07-25T06:19:54Z</time>
      </trkpt>
      <trkpt lat="46.75279" lon="-2.01852">
        <ele>4.7</ele>
        <time>2018-07-25T06:19:59Z</time>
      </trkpt>
      <trkpt lat="46.75246" lon="-2.01809">
        <ele>4.4</ele>
        <time>2018-07-25T06:20:04Z</time>
      </trkpt>
      <trkpt lat="46.75214" lon="-2.01764">
        <ele>4</ele>
        <time>2018-07-25T06:20:09Z</time>
      </trkpt>
      <trkpt lat="46.75184" lon="-2.01719">
        <ele>4.2</ele>
        <time>2018-07-25T06:20:14Z</time>
      </trkpt>
      <trkpt lat="46.75157" lon="-2.01673">
        <ele>4.4</ele>
        <time>2018-07-25T06:20:19Z</time>
      </trkpt>
      <trkpt lat="46.75127" lon="-2.01633">
        <ele>5</ele>
        <time>2018-07-25T06:20:24Z</time>
      </trkpt>
      <trkpt lat="46.75103" lon="-2.01593">
        <ele>5</ele>
        <time>2018-07-25T06:20:29Z</time>
      </trkpt>
      <trkpt lat="46.75072" lon="-2.01553">
        <ele>4</ele>
        <time>2018-07-25T06:20:34Z</time>
      </trkpt>
      <trkpt lat="46.75042" lon="-2.01512">
        <ele>3.9</ele>
        <time>2018-07-25T06:20:39Z</time>
      </trkpt>
      <trkpt lat="46.75013" lon="-2.01467">
        <ele>4.7</ele>
        <time>2018-07-25T06:20:44Z</time>
      </trkpt>
      <trkpt lat="46.74985" lon="-2.0142">
        <ele>7.1</ele>
        <time>2018-07-25T06:20:49Z</time>
      </trkpt>
      <trkpt lat="46.74956" lon="-2.01374">
        <ele>7.6</ele>
        <time>2018-07-25T06:20:54Z</time>
      </trkpt>
      <trkpt lat="46.74921" lon="-2.01345">
        <ele>8.1</ele>
        <time>2018-07-25T06:20:59Z</time>
      </trkpt>
      <trkpt lat="46.74885" lon="-2.01326">
        <ele>8.4</ele>
        <time>2018-07-25T06:21:04Z</time>
      </trkpt>
      <trkpt lat="46.74847" lon="-2.01304">
        <ele>8.7</ele>
        <time>2018-07-25T06:21:09Z</time>
      </trkpt>
      <trkpt lat="46.74807" lon="-2.01282">
        <ele>9</ele>
        <time>2018-07-25T06:21:14Z</time>
      </trkpt>
      <trkpt lat="46.74767" lon="-2.01258">
        <ele>9.3</ele>
        <time>2018-07-25T06:21:19Z</time>
      </trkpt>
      <trkpt lat="46.74728" lon="-2.01235">
        <ele>9.6</ele>
        <time>2018-07-25T06:21:24Z</time>
      </trkpt>
      <trkpt lat="46.74689" lon="-2.01209">
        <ele>9.9</ele>
        <time>2018-07-25T06:21:29Z</time>
      </trkpt>
      <trkpt lat="46.74651" lon="-2.01176">
        <ele>9.5</ele>
        <time>2018-07-25T06:21:34Z</time>
      </trkpt>
      <trkpt lat="46.74617" lon="-2.01134">
        <ele>8.5</ele>
        <time>2018-07-25T06:21:39Z</time>
      </trkpt>
      <trkpt lat="46.74583" lon="-2.01092">
        <ele>7.3</ele>
        <time>2018-07-25T06:21:44Z</time>
      </trkpt>
      <trkpt lat="46.74548" lon="-2.0105">
        <ele>6.3</ele>
        <time>2018-07-25T06:21:49Z</time>
      </trkpt>
      <trkpt lat="46.74512" lon="-2.01013">
        <ele>5.5</ele>
        <time>2018-07-25T06:21:54Z</time>
      </trkpt>
      <trkpt lat="46.74473" lon="-2.0098">
        <ele>4.8</ele>
        <time>2018-07-25T06:21:59Z</time>
      </trkpt>
      <trkpt lat="46.74435" lon="-2.00946">
        <ele>4.2</ele>
        <time>2018-07-25T06:22:04Z</time>
      </trkpt>
      <trkpt lat="46.74395" lon="-2.00913">
        <ele>3.7</ele>
        <time>2018-07-25T06:22:09Z</time>
      </trkpt>
      <trkpt lat="46.74357" lon="-2.0088">
        <ele>3.3</ele>
        <time>2018-07-25T06:22:14Z</time>
      </trkpt>
      <trkpt lat="46.74326" lon="-2.00838">
        <ele>2.3</ele>
        <time>2018-07-25T06:22:19Z</time>
      </trkpt>
      <trkpt lat="46.74297" lon="-2.00793">
        <ele>1</ele>
        <time>2018-07-25T06:22:24Z</time>
      </trkpt>
      <trkpt lat="46.74266" lon="-2.00745">
        <ele>0.8</ele>
        <time>2018-07-25T06:22:29Z</time>
      </trkpt>
      <trkpt lat="46.74236" lon="-2.00697">
        <ele>1.1</ele>
        <time>2018-07-25T06:22:34Z</time>
      </trkpt>
      <trkpt lat="46.74204" lon="-2.00651">
        <ele>1.3</ele>
        <time>2018-07-25T06:22:39Z</time>
      </trkpt>
      <trkpt lat="46.74172" lon="-2.00605">
        <ele>1.6</ele>
        <time>2018-07-25T06:22:44Z</time>
      </trkpt>
      <trkpt lat="46.7414" lon="-2.0056">
        <ele>2</ele>
        <time>2018-07-25T06:22:49Z</time>
      </trkpt>
      <trkpt lat="46.74109" lon="-2.00513">
        <ele>2.7</ele>
        <time>2018-07-25T06:22:54Z</time>
      </trkpt>
      <trkpt lat="46.74083" lon="-2.00458">
        <ele>2.9</ele>
        <time>2018-07-25T06:22:59Z</time>
      </trkpt>
      <trkpt lat="46.74064" lon="-2.00401">
        <ele>3</ele>
        <time>2018-07-25T06:23:04Z</time>
      </trkpt>
      <trkpt lat="46.74071" lon="-2.0034">
        <ele>3.5</ele>
        <time>2018-07-25T06:23:09Z</time>
      </trkpt>
      <trkpt lat="46.74085" lon="-2.00278">
        <ele>4</ele>
        <time>2018-07-25T06:23:14Z</time>
      </trkpt>
      <trkpt lat="46.74101" lon="-2.00218">
        <ele>3.9</ele>
        <time>2018-07-25T06:23:19Z</time>
      </trkpt>
      <trkpt lat="46.74116" lon="-2.00159">
        <ele>4.7</ele>
        <time>2018-07-25T06:23:24Z</time>
      </trkpt>
      <trkpt lat="46.74127" lon="-2.00098">
        <ele>6</ele>
        <time>2018-07-25T06:23:29Z</time>
      </trkpt>
      <trkpt lat="46.74134" lon="-2.00034">
        <ele>7</ele>
        <time>2018-07-25T06:23:34Z</time>
      </trkpt>
      <trkpt lat="46.7414" lon="-1.99968">
        <ele>6.3</ele>
        <time>2018-07-25T06:23:39Z</time>
      </trkpt>
      <trkpt lat="46.74143" lon="-1.99904">
        <ele>6</ele>
        <time>2018-07-25T06:23:44Z</time>
      </trkpt>
      <trkpt lat="46.74147" lon="-1.9984">
        <ele>6.7</ele>
        <time>2018-07-25T06:23:49Z</time>
      </trkpt>
      <trkpt lat="46.74151" lon="-1.99777">
        <ele>7.2</ele>
        <time>2018-07-25T06:23:54Z</time>
      </trkpt>
      <trkpt lat="46.74155" lon="-1.99715">
        <ele>7.8</ele>
        <time>2018-07-25T06:23:59Z</time>
      </trkpt>
      <trkpt lat="46.74161" lon="-1.99653">
        <ele>7.6</ele>
        <time>2018-07-25T06:24:04Z</time>
      </trkpt>
      <trkpt lat="46.74173" lon="-1.99595">
        <ele>7.2</ele>
        <time>2018-07-25T06:24:09Z</time>
      </trkpt>
      <trkpt lat="46.74185" lon="-1.9954">
        <ele>6.8</ele>
        <time>2018-07-25T06:24:14Z</time>
      </trkpt>
      <trkpt lat="46.742" lon="-1.9949">
        <ele>6.4</ele>
        <time>2018-07-25T06:24:19Z</time>
      </trkpt>
      <trkpt lat="46.7421" lon="-1.99437">
        <ele>6.2</ele>
        <time>2018-07-25T06:24:24Z</time>
      </trkpt>
      <trkpt lat="46.74215" lon="-1.9938">
        <ele>6.1</ele>
        <time>2018-07-25T06:24:29Z</time>
      </trkpt>
      <trkpt lat="46.74203" lon="-1.99334">
        <ele>7</ele>
        <time>2018-07-25T06:24:34Z</time>
      </trkpt>
      <trkpt lat="46.74177" lon="-1.99317">
        <ele>7</ele>
        <time>2018-07-25T06:24:39Z</time>
      </trkpt>
      <trkpt lat="46.74194" lon="-1.99278">
        <ele>7</ele>
        <time>2018-07-25T06:24:44Z</time>
      </trkpt>
      <trkpt lat="46.742" lon="-1.99236">
        <ele>5.9</ele>
        <time>2018-07-25T06:24:49Z</time>
      </trkpt>
      <trkpt lat="46.74195" lon="-1.99185">
        <ele>4.1</ele>
        <time>2018-07-25T06:24:54Z</time>
      </trkpt>
      <trkpt lat="46.74187" lon="-1.99128">
        <ele>2.7</ele>
        <time>2018-07-25T06:24:59Z</time>
      </trkpt>
      <trkpt lat="46.7418" lon="-1.99069">
        <ele>2.9</ele>
        <time>2018-07-25T06:25:04Z</time>
      </trkpt>
      <trkpt lat="46.74172" lon="-1.9901">
        <ele>3.6</ele>
        <time>2018-07-25T06:25:09Z</time>
      </trkpt>
      <trkpt lat="46.74165" lon="-1.98952">
        <ele>3.1</ele>
        <time>2018-07-25T06:25:14Z</time>
      </trkpt>
      <trkpt lat="46.74159" lon="-1.98894">
        <ele>3</ele>
        <time>2018-07-25T06:25:19Z</time>
      </trkpt>
      <trkpt lat="46.74148" lon="-1.98836">
        <ele>3</ele>
        <time>2018-07-25T06:25:24Z</time>
      </trkpt>
      <trkpt lat="46.74131" lon="-1.98781">
        <ele>2.9</ele>
        <time>2018-07-25T06:25:29Z</time>
      </trkpt>
      <trkpt lat="46.74112" lon="-1.98726">
        <ele>3</ele>
        <time>2018-07-25T06:25:34Z</time>
      </trkpt>
      <trkpt lat="46.74091" lon="-1.98671">
        <ele>3</ele>
        <time>2018-07-25T06:25:39Z</time>
      </trkpt>
      <trkpt lat="46.74069" lon="-1.98619">
        <ele>3</ele>
        <time>2018-07-25T06:25:44Z</time>
      </trkpt>
      <trkpt lat="46.74049" lon="-1.98568">
        <ele>3</ele>
        <time>2018-07-25T06:25:49Z</time>
      </trkpt>
      <trkpt lat="46.74031" lon="-1.98513">
        <ele>3</ele>
        <time>2018-07-25T06:25:54Z</time>
      </trkpt>
      <trkpt lat="46.74014" lon="-1.98457">
        <ele>3.1</ele>
        <time>2018-07-25T06:25:59Z</time>
      </trkpt>
      <trkpt lat="46.73997" lon="-1.98404">
        <ele>3.1</ele>
        <time>2018-07-25T06:26:04Z</time>
      </trkpt>
      <trkpt lat="46.73981" lon="-1.98349">
        <ele>3.2</ele>
        <time>2018-07-25T06:26:09Z</time>
      </trkpt>
      <trkpt lat="46.73965" lon="-1.98297">
        <ele>3.4</ele>
        <time>2018-07-25T06:26:14Z</time>
      </trkpt>
      <trkpt lat="46.73949" lon="-1.98245">
        <ele>3.6</ele>
        <time>2018-07-25T06:26:19Z</time>
      </trkpt>
      <trkpt lat="46.73934" lon="-1.98193">
        <ele>4.1</ele>
        <time>2018-07-25T06:26:24Z</time>
      </trkpt>
      <trkpt lat="46.73918" lon="-1.98141">
        <ele>4.6</ele>
        <time>2018-07-25T06:26:29Z</time>
      </trkpt>
      <trkpt lat="46.73898" lon="-1.98076">
        <ele>5.3</ele>
        <time>2018-07-25T06:26:35Z</time>
      </trkpt>
      <trkpt lat="46.7388" lon="-1.98023">
        <ele>5.7</ele>
        <time>2018-07-25T06:26:40Z</time>
      </trkpt>
      <trkpt lat="46.73867" lon="-1.9798">
        <ele>6.1</ele>
        <time>2018-07-25T06:26:44Z</time>
      </trkpt>
      <trkpt lat="46.73852" lon="-1.97925">
        <ele>6.7</ele>
        <time>2018-07-25T06:26:49Z</time>
      </trkpt>
      <trkpt lat="46.73834" lon="-1.97877">
        <ele>7.7</ele>
        <time>2018-07-25T06:26:54Z</time>
      </trkpt>
      <trkpt lat="46.73809" lon="-1.97833">
        <ele>8.8</ele>
        <time>2018-07-25T06:26:59Z</time>
      </trkpt>
      <trkpt lat="46.73766" lon="-1.97754">
        <ele>9.7</ele>
        <time>2018-07-25T06:27:08Z</time>
      </trkpt>
      <trkpt lat="46.7376" lon="-1.97745">
        <ele>9.8</ele>
        <time>2018-07-25T06:27:09Z</time>
      </trkpt>
      <trkpt lat="46.73734" lon="-1.97702">
        <ele>10.1</ele>
        <time>2018-07-25T06:27:14Z</time>
      </trkpt>
      <trkpt lat="46.73706" lon="-1.97661">
        <ele>10.4</ele>
        <time>2018-07-25T06:27:19Z</time>
      </trkpt>
      <trkpt lat="46.73673" lon="-1.97625">
        <ele>10.7</ele>
        <time>2018-07-25T06:27:24Z</time>
      </trkpt>
      <trkpt lat="46.73638" lon="-1.9759">
        <ele>11.6</ele>
        <time>2018-07-25T06:27:29Z</time>
      </trkpt>
      <trkpt lat="46.73571" lon="-1.97521">
        <ele>14.1</ele>
        <time>2018-07-25T06:27:38Z</time>
      </trkpt>
      <trkpt lat="46.73563" lon="-1.97514">
        <ele>14.5</ele>
        <time>2018-07-25T06:27:39Z</time>
      </trkpt>
      <trkpt lat="46.73527" lon="-1.97477">
        <ele>16.1</ele>
        <time>2018-07-25T06:27:44Z</time>
      </trkpt>
      <trkpt lat="46.73492" lon="-1.97442">
        <ele>16.8</ele>
        <time>2018-07-25T06:27:49Z</time>
      </trkpt>
      <trkpt lat="46.73458" lon="-1.97409">
        <ele>17.3</ele>
        <time>2018-07-25T06:27:54Z</time>
      </trkpt>
      <trkpt lat="46.73424" lon="-1.97375">
        <ele>17.7</ele>
        <time>2018-07-25T06:27:59Z</time>
      </trkpt>
      <trkpt lat="46.73386" lon="-1.97353">
        <ele>18.1</ele>
        <time>2018-07-25T06:28:04Z</time>
      </trkpt>
      <trkpt lat="46.73349" lon="-1.97333">
        <ele>18.4</ele>
        <time>2018-07-25T06:28:09Z</time>
      </trkpt>
      <trkpt lat="46.73309" lon="-1.97313">
        <ele>18.7</ele>
        <time>2018-07-25T06:28:14Z</time>
      </trkpt>
      <trkpt lat="46.73269" lon="-1.97295">
        <ele>19.1</ele>
        <time>2018-07-25T06:28:19Z</time>
      </trkpt>
      <trkpt lat="46.73231" lon="-1.97267">
        <ele>19.4</ele>
        <time>2018-07-25T06:28:24Z</time>
      </trkpt>
      <trkpt lat="46.73197" lon="-1.9723">
        <ele>19.8</ele>
        <time>2018-07-25T06:28:29Z</time>
      </trkpt>
      <trkpt lat="46.7315" lon="-1.97164">
        <ele>21.1</ele>
        <time>2018-07-25T06:28:37Z</time>
      </trkpt>
      <trkpt lat="46.73137" lon="-1.97147">
        <ele>21.5</ele>
        <time>2018-07-25T06:28:39Z</time>
      </trkpt>
      <trkpt lat="46.73109" lon="-1.97105">
        <ele>22</ele>
        <time>2018-07-25T06:28:44Z</time>
      </trkpt>
      <trkpt lat="46.73079" lon="-1.97064">
        <ele>22.6</ele>
        <time>2018-07-25T06:28:49Z</time>
      </trkpt>
      <trkpt lat="46.73051" lon="-1.97022">
        <ele>22.9</ele>
        <time>2018-07-25T06:28:54Z</time>
      </trkpt>
      <trkpt lat="46.73014" lon="-1.96973">
        <ele>23.6</ele>
        <time>2018-07-25T06:29:00Z</time>
      </trkpt>
      <trkpt lat="46.72993" lon="-1.96935">
        <ele>22.9</ele>
        <time>2018-07-25T06:29:04Z</time>
      </trkpt>
      <trkpt lat="46.72956" lon="-1.96838">
        <ele>21.4</ele>
        <time>2018-07-25T06:29:13Z</time>
      </trkpt>
      <trkpt lat="46.72951" lon="-1.96828">
        <ele>21.3</ele>
        <time>2018-07-25T06:29:14Z</time>
      </trkpt>
      <trkpt lat="46.72929" lon="-1.9678">
        <ele>20.8</ele>
        <time>2018-07-25T06:29:19Z</time>
      </trkpt>
      <trkpt lat="46.72904" lon="-1.96731">
        <ele>20.3</ele>
        <time>2018-07-25T06:29:24Z</time>
      </trkpt>
      <trkpt lat="46.7288" lon="-1.96681">
        <ele>19.8</ele>
        <time>2018-07-25T06:29:29Z</time>
      </trkpt>
      <trkpt lat="46.72855" lon="-1.96635">
        <ele>19.4</ele>
        <time>2018-07-25T06:29:34Z</time>
      </trkpt>
      <trkpt lat="46.7283" lon="-1.96587">
        <ele>18.8</ele>
        <time>2018-07-25T06:29:39Z</time>
      </trkpt>
      <trkpt lat="46.72802" lon="-1.96541">
        <ele>18.3</ele>
        <time>2018-07-25T06:29:44Z</time>
      </trkpt>
      <trkpt lat="46.72777" lon="-1.96493">
        <ele>17.7</ele>
        <time>2018-07-25T06:29:49Z</time>
      </trkpt>
      <trkpt lat="46.72754" lon="-1.96443">
        <ele>16.9</ele>
        <time>2018-07-25T06:29:54Z</time>
      </trkpt>
      <trkpt lat="46.72732" lon="-1.96393">
        <ele>16.2</ele>
        <time>2018-07-25T06:29:59Z</time>
      </trkpt>
      <trkpt lat="46.72715" lon="-1.96337">
        <ele>15.6</ele>
        <time>2018-07-25T06:30:04Z</time>
      </trkpt>
      <trkpt lat="46.72698" lon="-1.96282">
        <ele>15</ele>
        <time>2018-07-25T06:30:09Z</time>
      </trkpt>
      <trkpt lat="46.7268" lon="-1.96226">
        <ele>14.5</ele>
        <time>2018-07-25T06:30:14Z</time>
      </trkpt>
      <trkpt lat="46.72643" lon="-1.96161">
        <ele>13.8</ele>
        <time>2018-07-25T06:30:21Z</time>
      </trkpt>
      <trkpt lat="46.72626" lon="-1.96139">
        <ele>13.6</ele>
        <time>2018-07-25T06:30:24Z</time>
      </trkpt>
      <trkpt lat="46.72601" lon="-1.96089">
        <ele>13.3</ele>
        <time>2018-07-25T06:30:29Z</time>
      </trkpt>
      <trkpt lat="46.72581" lon="-1.96038">
        <ele>12.9</ele>
        <time>2018-07-25T06:30:34Z</time>
      </trkpt>
      <trkpt lat="46.72552" lon="-1.9597">
        <ele>11.9</ele>
        <time>2018-07-25T06:30:41Z</time>
      </trkpt>
      <trkpt lat="46.72539" lon="-1.95941">
        <ele>11.5</ele>
        <time>2018-07-25T06:30:44Z</time>
      </trkpt>
      <trkpt lat="46.72508" lon="-1.95865">
        <ele>9.6</ele>
        <time>2018-07-25T06:30:53Z</time>
      </trkpt>
      <trkpt lat="46.72505" lon="-1.95856">
        <ele>9.5</ele>
        <time>2018-07-25T06:30:54Z</time>
      </trkpt>
      <trkpt lat="46.72488" lon="-1.95803">
        <ele>8.8</ele>
        <time>2018-07-25T06:30:59Z</time>
      </trkpt>
      <trkpt lat="46.72475" lon="-1.95751">
        <ele>8.1</ele>
        <time>2018-07-25T06:31:04Z</time>
      </trkpt>
      <trkpt lat="46.72461" lon="-1.95698">
        <ele>6.5</ele>
        <time>2018-07-25T06:31:09Z</time>
      </trkpt>
      <trkpt lat="46.72449" lon="-1.95652">
        <ele>4.9</ele>
        <time>2018-07-25T06:31:14Z</time>
      </trkpt>
      <trkpt lat="46.72436" lon="-1.95616">
        <ele>4</ele>
        <time>2018-07-25T06:31:19Z</time>
      </trkpt>
      <trkpt lat="46.72429" lon="-1.95596">
        <ele>4</ele>
        <time>2018-07-25T06:31:24Z</time>
      </trkpt>
      <trkpt lat="46.72423" lon="-1.95574">
        <ele>5</ele>
        <time>2018-07-25T06:31:29Z</time>
      </trkpt>
      <trkpt lat="46.72437" lon="-1.95535">
        <ele>4.9</ele>
        <time>2018-07-25T06:31:34Z</time>
      </trkpt>
      <trkpt lat="46.72445" lon="-1.9548">
        <ele>5</ele>
        <time>2018-07-25T06:31:39Z</time>
      </trkpt>
      <trkpt lat="46.72441" lon="-1.95418">
        <ele>5</ele>
        <time>2018-07-25T06:31:44Z</time>
      </trkpt>
      <trkpt lat="46.72436" lon="-1.95359">
        <ele>5.1</ele>
        <time>2018-07-25T06:31:49Z</time>
      </trkpt>
      <trkpt lat="46.7243" lon="-1.953">
        <ele>5.2</ele>
        <time>2018-07-25T06:31:54Z</time>
      </trkpt>
      <trkpt lat="46.72422" lon="-1.95241">
        <ele>5.4</ele>
        <time>2018-07-25T06:31:59Z</time>
      </trkpt>
      <trkpt lat="46.7241" lon="-1.95182">
        <ele>5.5</ele>
        <time>2018-07-25T06:32:04Z</time>
      </trkpt>
      <trkpt lat="46.72397" lon="-1.95122">
        <ele>5.7</ele>
        <time>2018-07-25T06:32:09Z</time>
      </trkpt>
      <trkpt lat="46.72381" lon="-1.95063">
        <ele>5.8</ele>
        <time>2018-07-25T06:32:14Z</time>
      </trkpt>
      <trkpt lat="46.72362" lon="-1.95005">
        <ele>5.8</ele>
        <time>2018-07-25T06:32:19Z</time>
      </trkpt>
      <trkpt lat="46.72339" lon="-1.94918">
        <ele>7</ele>
        <time>2018-07-25T06:32:27Z</time>
      </trkpt>
      <trkpt lat="46.72334" lon="-1.94896">
        <ele>8</ele>
        <time>2018-07-25T06:32:29Z</time>
      </trkpt>
      <trkpt lat="46.72317" lon="-1.94841">
        <ele>8.8</ele>
        <time>2018-07-25T06:32:34Z</time>
      </trkpt>
      <trkpt lat="46.723" lon="-1.94774">
        <ele>9</ele>
        <time>2018-07-25T06:32:40Z</time>
      </trkpt>
      <trkpt lat="46.72291" lon="-1.94732">
        <ele>9.1</ele>
        <time>2018-07-25T06:32:44Z</time>
      </trkpt>
      <trkpt lat="46.72273" lon="-1.94678">
        <ele>9</ele>
        <time>2018-07-25T06:32:51Z</time>
      </trkpt>
      <trkpt lat="46.72258" lon="-1.94657">
        <ele>9</ele>
        <time>2018-07-25T06:32:54Z</time>
      </trkpt>
      <trkpt lat="46.72212" lon="-1.94597">
        <ele>10.4</ele>
        <time>2018-07-25T06:33:02Z</time>
      </trkpt>
      <trkpt lat="46.72201" lon="-1.9458">
        <ele>10.7</ele>
        <time>2018-07-25T06:33:04Z</time>
      </trkpt>
      <trkpt lat="46.72172" lon="-1.94571">
        <ele>11.2</ele>
        <time>2018-07-25T06:33:10Z</time>
      </trkpt>
      <trkpt lat="46.72132" lon="-1.94588">
        <ele>11.4</ele>
        <time>2018-07-25T06:33:15Z</time>
      </trkpt>
      <trkpt lat="46.72103" lon="-1.94595">
        <ele>11.7</ele>
        <time>2018-07-25T06:33:19Z</time>
      </trkpt>
      <trkpt lat="46.72058" lon="-1.94606">
        <ele>12</ele>
        <time>2018-07-25T06:33:25Z</time>
      </trkpt>
      <trkpt lat="46.72035" lon="-1.94616">
        <ele>12.1</ele>
        <time>2018-07-25T06:33:29Z</time>
      </trkpt>
      <trkpt lat="46.72003" lon="-1.9464">
        <ele>12.3</ele>
        <time>2018-07-25T06:33:34Z</time>
      </trkpt>
      <trkpt lat="46.71972" lon="-1.94672">
        <ele>13</ele>
        <time>2018-07-25T06:33:39Z</time>
      </trkpt>
      <trkpt lat="46.71936" lon="-1.94697">
        <ele>13.4</ele>
        <time>2018-07-25T06:33:44Z</time>
      </trkpt>
      <trkpt lat="46.71898" lon="-1.94725">
        <ele>13.9</ele>
        <time>2018-07-25T06:33:49Z</time>
      </trkpt>
      <trkpt lat="46.71864" lon="-1.94751">
        <ele>14.4</ele>
        <time>2018-07-25T06:33:54Z</time>
      </trkpt>
      <trkpt lat="46.71829" lon="-1.94778">
        <ele>15</ele>
        <time>2018-07-25T06:33:59Z</time>
      </trkpt>
      <trkpt lat="46.71806" lon="-1.94803">
        <ele>15.8</ele>
        <time>2018-07-25T06:34:04Z</time>
      </trkpt>
      <trkpt lat="46.71812" lon="-1.94837">
        <ele>15.9</ele>
        <time>2018-07-25T06:34:09Z</time>
      </trkpt>
      <trkpt lat="46.71824" lon="-1.94875">
        <ele>16</ele>
        <time>2018-07-25T06:34:14Z</time>
      </trkpt>
      <trkpt lat="46.71835" lon="-1.94911">
        <ele>15.6</ele>
        <time>2018-07-25T06:34:20Z</time>
      </trkpt>
      <trkpt lat="46.71838" lon="-1.94919">
        <ele>15.3</ele>
        <time>2018-07-25T06:34:24Z</time>
      </trkpt>
      <trkpt lat="46.7184" lon="-1.94924">
        <ele>15.2</ele>
        <time>2018-07-25T06:34:29Z</time>
      </trkpt>
      <trkpt lat="46.71847" lon="-1.94948">
        <ele>14.3</ele>
        <time>2018-07-25T06:34:34Z</time>
      </trkpt>
      <trkpt lat="46.7183" lon="-1.94976">
        <ele>14.4</ele>
        <time>2018-07-25T06:34:39Z</time>
      </trkpt>
      <trkpt lat="46.71794" lon="-1.94993">
        <ele>15.2</ele>
        <time>2018-07-25T06:34:44Z</time>
      </trkpt>
      <trkpt lat="46.71758" lon="-1.95013">
        <ele>15.8</ele>
        <time>2018-07-25T06:34:49Z</time>
      </trkpt>
      <trkpt lat="46.71722" lon="-1.95035">
        <ele>16.1</ele>
        <time>2018-07-25T06:34:54Z</time>
      </trkpt>
      <trkpt lat="46.71679" lon="-1.95066">
        <ele>16.5</ele>
        <time>2018-07-25T06:35:00Z</time>
      </trkpt>
      <trkpt lat="46.71649" lon="-1.95088">
        <ele>16.7</ele>
        <time>2018-07-25T06:35:04Z</time>
      </trkpt>
      <trkpt lat="46.71611" lon="-1.95115">
        <ele>16.8</ele>
        <time>2018-07-25T06:35:09Z</time>
      </trkpt>
      <trkpt lat="46.71573" lon="-1.95146">
        <ele>16.9</ele>
        <time>2018-07-25T06:35:14Z</time>
      </trkpt>
      <trkpt lat="46.71534" lon="-1.95175">
        <ele>16.9</ele>
        <time>2018-07-25T06:35:19Z</time>
      </trkpt>
      <trkpt lat="46.71493" lon="-1.95209">
        <ele>17</ele>
        <time>2018-07-25T06:35:24Z</time>
      </trkpt>
      <trkpt lat="46.71455" lon="-1.95248">
        <ele>17</ele>
        <time>2018-07-25T06:35:29Z</time>
      </trkpt>
      <trkpt lat="46.71423" lon="-1.95288">
        <ele>17</ele>
        <time>2018-07-25T06:35:34Z</time>
      </trkpt>
      <trkpt lat="46.71396" lon="-1.95331">
        <ele>17</ele>
        <time>2018-07-25T06:35:39Z</time>
      </trkpt>
      <trkpt lat="46.71369" lon="-1.95387">
        <ele>16.7</ele>
        <time>2018-07-25T06:35:44Z</time>
      </trkpt>
      <trkpt lat="46.71346" lon="-1.95445">
        <ele>16.6</ele>
        <time>2018-07-25T06:35:49Z</time>
      </trkpt>
      <trkpt lat="46.71328" lon="-1.95503">
        <ele>16.5</ele>
        <time>2018-07-25T06:35:54Z</time>
      </trkpt>
      <trkpt lat="46.71311" lon="-1.95567">
        <ele>16.5</ele>
        <time>2018-07-25T06:35:59Z</time>
      </trkpt>
      <trkpt lat="46.71294" lon="-1.95629">
        <ele>16.9</ele>
        <time>2018-07-25T06:36:04Z</time>
      </trkpt>
      <trkpt lat="46.71278" lon="-1.95689">
        <ele>19</ele>
        <time>2018-07-25T06:36:09Z</time>
      </trkpt>
      <trkpt lat="46.71262" lon="-1.95748">
        <ele>19</ele>
        <time>2018-07-25T06:36:14Z</time>
      </trkpt>
      <trkpt lat="46.71245" lon="-1.9581">
        <ele>19</ele>
        <time>2018-07-25T06:36:19Z</time>
      </trkpt>
      <trkpt lat="46.71213" lon="-1.95923">
        <ele>18.7</ele>
        <time>2018-07-25T06:36:28Z</time>
      </trkpt>
      <trkpt lat="46.71209" lon="-1.95936">
        <ele>18.6</ele>
        <time>2018-07-25T06:36:29Z</time>
      </trkpt>
      <trkpt lat="46.71192" lon="-1.95999">
        <ele>17.9</ele>
        <time>2018-07-25T06:36:34Z</time>
      </trkpt>
      <trkpt lat="46.71174" lon="-1.96058">
        <ele>15.4</ele>
        <time>2018-07-25T06:36:39Z</time>
      </trkpt>
      <trkpt lat="46.71167" lon="-1.96117">
        <ele>14.6</ele>
        <time>2018-07-25T06:36:44Z</time>
      </trkpt>
      <trkpt lat="46.71147" lon="-1.96165">
        <ele>13.9</ele>
        <time>2018-07-25T06:36:49Z</time>
      </trkpt>
      <trkpt lat="46.7113" lon="-1.96223">
        <ele>13.6</ele>
        <time>2018-07-25T06:36:54Z</time>
      </trkpt>
      <trkpt lat="46.71111" lon="-1.96288">
        <ele>13</ele>
        <time>2018-07-25T06:36:59Z</time>
      </trkpt>
      <trkpt lat="46.71094" lon="-1.96352">
        <ele>13</ele>
        <time>2018-07-25T06:37:04Z</time>
      </trkpt>
      <trkpt lat="46.71074" lon="-1.96418">
        <ele>13.4</ele>
        <time>2018-07-25T06:37:09Z</time>
      </trkpt>
      <trkpt lat="46.71049" lon="-1.96518">
        <ele>13</ele>
        <time>2018-07-25T06:37:17Z</time>
      </trkpt>
      <trkpt lat="46.71043" lon="-1.9654">
        <ele>13</ele>
        <time>2018-07-25T06:37:19Z</time>
      </trkpt>
      <trkpt lat="46.71028" lon="-1.96603">
        <ele>12.9</ele>
        <time>2018-07-25T06:37:24Z</time>
      </trkpt>
      <trkpt lat="46.71016" lon="-1.96673">
        <ele>12.9</ele>
        <time>2018-07-25T06:37:29Z</time>
      </trkpt>
      <trkpt lat="46.71018" lon="-1.96755">
        <ele>12.7</ele>
        <time>2018-07-25T06:37:35Z</time>
      </trkpt>
      <trkpt lat="46.71018" lon="-1.9681">
        <ele>13</ele>
        <time>2018-07-25T06:37:40Z</time>
      </trkpt>
      <trkpt lat="46.71015" lon="-1.96855">
        <ele>13.7</ele>
        <time>2018-07-25T06:37:44Z</time>
      </trkpt>
      <trkpt lat="46.71018" lon="-1.96919">
        <ele>14.5</ele>
        <time>2018-07-25T06:37:49Z</time>
      </trkpt>
      <trkpt lat="46.71022" lon="-1.96986">
        <ele>15</ele>
        <time>2018-07-25T06:37:54Z</time>
      </trkpt>
      <trkpt lat="46.71025" lon="-1.9705">
        <ele>14</ele>
        <time>2018-07-25T06:37:59Z</time>
      </trkpt>
      <trkpt lat="46.7103" lon="-1.97138">
        <ele>12.6</ele>
        <time>2018-07-25T06:38:06Z</time>
      </trkpt>
      <trkpt lat="46.71032" lon="-1.97178">
        <ele>12</ele>
        <time>2018-07-25T06:38:09Z</time>
      </trkpt>
      <trkpt lat="46.71036" lon="-1.97245">
        <ele>12.3</ele>
        <time>2018-07-25T06:38:14Z</time>
      </trkpt>
      <trkpt lat="46.7104" lon="-1.9731">
        <ele>13</ele>
        <time>2018-07-25T06:38:19Z</time>
      </trkpt>
      <trkpt lat="46.71043" lon="-1.97375">
        <ele>13.4</ele>
        <time>2018-07-25T06:38:24Z</time>
      </trkpt>
      <trkpt lat="46.71048" lon="-1.97435">
        <ele>14</ele>
        <time>2018-07-25T06:38:29Z</time>
      </trkpt>
      <trkpt lat="46.71062" lon="-1.97488">
        <ele>13.1</ele>
        <time>2018-07-25T06:38:34Z</time>
      </trkpt>
      <trkpt lat="46.71083" lon="-1.97599">
        <ele>12</ele>
        <time>2018-07-25T06:38:43Z</time>
      </trkpt>
      <trkpt lat="46.71085" lon="-1.97612">
        <ele>11.8</ele>
        <time>2018-07-25T06:38:44Z</time>
      </trkpt>
      <trkpt lat="46.71101" lon="-1.97677">
        <ele>10.7</ele>
        <time>2018-07-25T06:38:49Z</time>
      </trkpt>
      <trkpt lat="46.71125" lon="-1.97736">
        <ele>9.7</ele>
        <time>2018-07-25T06:38:54Z</time>
      </trkpt>
      <trkpt lat="46.71135" lon="-1.97804">
        <ele>9.6</ele>
        <time>2018-07-25T06:38:59Z</time>
      </trkpt>
      <trkpt lat="46.71138" lon="-1.97851">
        <ele>10</ele>
        <time>2018-07-25T06:39:04Z</time>
      </trkpt>
      <trkpt lat="46.71146" lon="-1.97904">
        <ele>10</ele>
        <time>2018-07-25T06:39:11Z</time>
      </trkpt>
      <trkpt lat="46.71149" lon="-1.97923">
        <ele>9.4</ele>
        <time>2018-07-25T06:39:14Z</time>
      </trkpt>
      <trkpt lat="46.71164" lon="-1.97971">
        <ele>8</ele>
        <time>2018-07-25T06:39:21Z</time>
      </trkpt>
      <trkpt lat="46.71154" lon="-1.97999">
        <ele>6</ele>
        <time>2018-07-25T06:39:26Z</time>
      </trkpt>
      <trkpt lat="46.71139" lon="-1.98009">
        <ele>4.8</ele>
        <time>2018-07-25T06:39:29Z</time>
      </trkpt>
      <trkpt lat="46.7112" lon="-1.98023">
        <ele>3.4</ele>
        <time>2018-07-25T06:39:34Z</time>
      </trkpt>
      <trkpt lat="46.71092" lon="-1.98028">
        <ele>1.5</ele>
        <time>2018-07-25T06:39:39Z</time>
      </trkpt>
      <trkpt lat="46.71081" lon="-1.97994">
        <ele>4</ele>
        <time>2018-07-25T06:39:44Z</time>
      </trkpt>
      <trkpt lat="46.71077" lon="-1.97951">
        <ele>8</ele>
        <time>2018-07-25T06:39:49Z</time>
      </trkpt>
      <trkpt lat="46.71057" lon="-1.97931">
        <ele>8</ele>
        <time>2018-07-25T06:39:55Z</time>
      </trkpt>
      <trkpt lat="46.71039" lon="-1.9794">
        <ele>8</ele>
        <time>2018-07-25T06:39:59Z</time>
      </trkpt>
      <trkpt lat="46.71013" lon="-1.97946">
        <ele>8</ele>
        <time>2018-07-25T06:40:04Z</time>
      </trkpt>
      <trkpt lat="46.70983" lon="-1.97957">
        <ele>8</ele>
        <time>2018-07-25T06:40:09Z</time>
      </trkpt>
      <trkpt lat="46.70943" lon="-1.9796">
        <ele>5.7</ele>
        <time>2018-07-25T06:40:14Z</time>
      </trkpt>
      <trkpt lat="46.70901" lon="-1.97945">
        <ele>4.3</ele>
        <time>2018-07-25T06:40:19Z</time>
      </trkpt>
      <trkpt lat="46.70859" lon="-1.97925">
        <ele>3</ele>
        <time>2018-07-25T06:40:24Z</time>
      </trkpt>
      <trkpt lat="46.70818" lon="-1.97906">
        <ele>6</ele>
        <time>2018-07-25T06:40:29Z</time>
      </trkpt>
      <trkpt lat="46.70765" lon="-1.97899">
        <ele>6</ele>
        <time>2018-07-25T06:40:36Z</time>
      </trkpt>
      <trkpt lat="46.70715" lon="-1.97895">
        <ele>5.5</ele>
        <time>2018-07-25T06:40:42Z</time>
      </trkpt>
      <trkpt lat="46.70697" lon="-1.97893">
        <ele>5.2</ele>
        <time>2018-07-25T06:40:44Z</time>
      </trkpt>
      <trkpt lat="46.70652" lon="-1.97896">
        <ele>4.9</ele>
        <time>2018-07-25T06:40:49Z</time>
      </trkpt>
      <trkpt lat="46.70607" lon="-1.97911">
        <ele>5</ele>
        <time>2018-07-25T06:40:54Z</time>
      </trkpt>
      <trkpt lat="46.70545" lon="-1.97925">
        <ele>5.5</ele>
        <time>2018-07-25T06:41:01Z</time>
      </trkpt>
      <trkpt lat="46.70521" lon="-1.9792">
        <ele>6.3</ele>
        <time>2018-07-25T06:41:04Z</time>
      </trkpt>
      <trkpt lat="46.70479" lon="-1.97901">
        <ele>6.7</ele>
        <time>2018-07-25T06:41:10Z</time>
      </trkpt>
      <trkpt lat="46.7045" lon="-1.97881">
        <ele>6.8</ele>
        <time>2018-07-25T06:41:14Z</time>
      </trkpt>
      <trkpt lat="46.70397" lon="-1.97828">
        <ele>7.9</ele>
        <time>2018-07-25T06:41:23Z</time>
      </trkpt>
      <trkpt lat="46.70387" lon="-1.97818">
        <ele>7.9</ele>
        <time>2018-07-25T06:41:25Z</time>
      </trkpt>
      <trkpt lat="46.70363" lon="-1.9779">
        <ele>8</ele>
        <time>2018-07-25T06:41:29Z</time>
      </trkpt>
      <trkpt lat="46.70333" lon="-1.97759">
        <ele>8</ele>
        <time>2018-07-25T06:41:34Z</time>
      </trkpt>
      <trkpt lat="46.70293" lon="-1.97719">
        <ele>6.6</ele>
        <time>2018-07-25T06:41:41Z</time>
      </trkpt>
      <trkpt lat="46.70276" lon="-1.97702">
        <ele>6.2</ele>
        <time>2018-07-25T06:41:44Z</time>
      </trkpt>
      <trkpt lat="46.70245" lon="-1.97668">
        <ele>6.1</ele>
        <time>2018-07-25T06:41:49Z</time>
      </trkpt>
      <trkpt lat="46.70214" lon="-1.97632">
        <ele>6.3</ele>
        <time>2018-07-25T06:41:54Z</time>
      </trkpt>
      <trkpt lat="46.70183" lon="-1.97591">
        <ele>6.9</ele>
        <time>2018-07-25T06:41:59Z</time>
      </trkpt>
      <trkpt lat="46.70133" lon="-1.97518">
        <ele>11.1</ele>
        <time>2018-07-25T06:42:07Z</time>
      </trkpt>
      <trkpt lat="46.7012" lon="-1.97501">
        <ele>11.7</ele>
        <time>2018-07-25T06:42:09Z</time>
      </trkpt>
      <trkpt lat="46.70086" lon="-1.97458">
        <ele>10.7</ele>
        <time>2018-07-25T06:42:14Z</time>
      </trkpt>
      <trkpt lat="46.70049" lon="-1.97408">
        <ele>9.6</ele>
        <time>2018-07-25T06:42:20Z</time>
      </trkpt>
      <trkpt lat="46.70026" lon="-1.97376">
        <ele>8.8</ele>
        <time>2018-07-25T06:42:24Z</time>
      </trkpt>
      <trkpt lat="46.69989" lon="-1.97334">
        <ele>6.9</ele>
        <time>2018-07-25T06:42:30Z</time>
      </trkpt>
      <trkpt lat="46.69961" lon="-1.97308">
        <ele>4</ele>
        <time>2018-07-25T06:42:34Z</time>
      </trkpt>
      <trkpt lat="46.69887" lon="-1.97248">
        <ele>5.9</ele>
        <time>2018-07-25T06:42:43Z</time>
      </trkpt>
      <trkpt lat="46.69879" lon="-1.97243">
        <ele>5.7</ele>
        <time>2018-07-25T06:42:44Z</time>
      </trkpt>
      <trkpt lat="46.69844" lon="-1.97215">
        <ele>5.9</ele>
        <time>2018-07-25T06:42:49Z</time>
      </trkpt>
      <trkpt lat="46.69807" lon="-1.97188">
        <ele>5.1</ele>
        <time>2018-07-25T06:42:54Z</time>
      </trkpt>
      <trkpt lat="46.6977" lon="-1.97157">
        <ele>4.1</ele>
        <time>2018-07-25T06:42:59Z</time>
      </trkpt>
      <trkpt lat="46.69736" lon="-1.97122">
        <ele>6.2</ele>
        <time>2018-07-25T06:43:04Z</time>
      </trkpt>
      <trkpt lat="46.69682" lon="-1.9706">
        <ele>7</ele>
        <time>2018-07-25T06:43:12Z</time>
      </trkpt>
      <trkpt lat="46.69669" lon="-1.97047">
        <ele>4.8</ele>
        <time>2018-07-25T06:43:14Z</time>
      </trkpt>
      <trkpt lat="46.69633" lon="-1.97011">
        <ele>0.5</ele>
        <time>2018-07-25T06:43:19Z</time>
      </trkpt>
      <trkpt lat="46.69597" lon="-1.96969">
        <ele>4.6</ele>
        <time>2018-07-25T06:43:24Z</time>
      </trkpt>
      <trkpt lat="46.69533" lon="-1.96906">
        <ele>6.4</ele>
        <time>2018-07-25T06:43:32Z</time>
      </trkpt>
      <trkpt lat="46.69519" lon="-1.96896">
        <ele>7.1</ele>
        <time>2018-07-25T06:43:34Z</time>
      </trkpt>
      <trkpt lat="46.69493" lon="-1.96867">
        <ele>2</ele>
        <time>2018-07-25T06:43:39Z</time>
      </trkpt>
      <trkpt lat="46.69463" lon="-1.96836">
        <ele>5.7</ele>
        <time>2018-07-25T06:43:44Z</time>
      </trkpt>
      <trkpt lat="46.6943" lon="-1.96804">
        <ele>10</ele>
        <time>2018-07-25T06:43:49Z</time>
      </trkpt>
      <trkpt lat="46.69397" lon="-1.96774">
        <ele>4.8</ele>
        <time>2018-07-25T06:43:54Z</time>
      </trkpt>
      <trkpt lat="46.69368" lon="-1.96738">
        <ele>2.1</ele>
        <time>2018-07-25T06:43:59Z</time>
      </trkpt>
      <trkpt lat="46.69337" lon="-1.9667">
        <ele>10.4</ele>
        <time>2018-07-25T06:44:06Z</time>
      </trkpt>
      <trkpt lat="46.69328" lon="-1.96637">
        <ele>7.9</ele>
        <time>2018-07-25T06:44:09Z</time>
      </trkpt>
      <trkpt lat="46.69321" lon="-1.96584">
        <ele>1.6</ele>
        <time>2018-07-25T06:44:14Z</time>
      </trkpt>
      <trkpt lat="46.69319" lon="-1.96532">
        <ele>5</ele>
        <time>2018-07-25T06:44:19Z</time>
      </trkpt>
      <trkpt lat="46.69322" lon="-1.96482">
        <ele>5.7</ele>
        <time>2018-07-25T06:44:24Z</time>
      </trkpt>
      <trkpt lat="46.69325" lon="-1.96425">
        <ele>7.3</ele>
        <time>2018-07-25T06:44:29Z</time>
      </trkpt>
      <trkpt lat="46.6933" lon="-1.96361">
        <ele>7.9</ele>
        <time>2018-07-25T06:44:35Z</time>
      </trkpt>
      <trkpt lat="46.69333" lon="-1.96326">
        <ele>7.9</ele>
        <time>2018-07-25T06:44:39Z</time>
      </trkpt>
      <trkpt lat="46.69333" lon="-1.96286">
        <ele>7.6</ele>
        <time>2018-07-25T06:44:44Z</time>
      </trkpt>
      <trkpt lat="46.69334" lon="-1.96233">
        <ele>7.1</ele>
        <time>2018-07-25T06:44:49Z</time>
      </trkpt>
      <trkpt lat="46.6933" lon="-1.9617">
        <ele>6.3</ele>
        <time>2018-07-25T06:44:55Z</time>
      </trkpt>
      <trkpt lat="46.69342" lon="-1.96125">
        <ele>5.6</ele>
        <time>2018-07-25T06:44:59Z</time>
      </trkpt>
      <trkpt lat="46.69378" lon="-1.96086">
        <ele>5</ele>
        <time>2018-07-25T06:45:04Z</time>
      </trkpt>
      <trkpt lat="46.69426" lon="-1.96035">
        <ele>5</ele>
        <time>2018-07-25T06:45:10Z</time>
      </trkpt>
      <trkpt lat="46.69446" lon="-1.95997">
        <ele>3.8</ele>
        <time>2018-07-25T06:45:14Z</time>
      </trkpt>
      <trkpt lat="46.6946" lon="-1.95893">
        <ele>2</ele>
        <time>2018-07-25T06:45:23Z</time>
      </trkpt>
      <trkpt lat="46.69462" lon="-1.9588">
        <ele>2</ele>
        <time>2018-07-25T06:45:24Z</time>
      </trkpt>
      <trkpt lat="46.69467" lon="-1.95821">
        <ele>3.3</ele>
        <time>2018-07-25T06:45:29Z</time>
      </trkpt>
      <trkpt lat="46.69472" lon="-1.95766">
        <ele>5.2</ele>
        <time>2018-07-25T06:45:34Z</time>
      </trkpt>
      <trkpt lat="46.69484" lon="-1.95707">
        <ele>7</ele>
        <time>2018-07-25T06:45:39Z</time>
      </trkpt>
      <trkpt lat="46.69496" lon="-1.9565">
        <ele>8.5</ele>
        <time>2018-07-25T06:45:44Z</time>
      </trkpt>
      <trkpt lat="46.69509" lon="-1.95596">
        <ele>9.9</ele>
        <time>2018-07-25T06:45:49Z</time>
      </trkpt>
      <trkpt lat="46.69528" lon="-1.95542">
        <ele>8.8</ele>
        <time>2018-07-25T06:45:54Z</time>
      </trkpt>
      <trkpt lat="46.6955" lon="-1.95486">
        <ele>7.7</ele>
        <time>2018-07-25T06:45:59Z</time>
      </trkpt>
      <trkpt lat="46.69555" lon="-1.95426">
        <ele>7.3</ele>
        <time>2018-07-25T06:46:04Z</time>
      </trkpt>
      <trkpt lat="46.69546" lon="-1.9537">
        <ele>9.1</ele>
        <time>2018-07-25T06:46:09Z</time>
      </trkpt>
      <trkpt lat="46.69535" lon="-1.95314">
        <ele>8.2</ele>
        <time>2018-07-25T06:46:14Z</time>
      </trkpt>
      <trkpt lat="46.69532" lon="-1.95268">
        <ele>6.8</ele>
        <time>2018-07-25T06:46:19Z</time>
      </trkpt>
      <trkpt lat="46.6955" lon="-1.95236">
        <ele>7.4</ele>
        <time>2018-07-25T06:46:24Z</time>
      </trkpt>
      <trkpt lat="46.69573" lon="-1.95217">
        <ele>8.7</ele>
        <time>2018-07-25T06:46:29Z</time>
      </trkpt>
      <trkpt lat="46.69595" lon="-1.95189">
        <ele>9.1</ele>
        <time>2018-07-25T06:46:34Z</time>
      </trkpt>
      <trkpt lat="46.69614" lon="-1.95156">
        <ele>9.4</ele>
        <time>2018-07-25T06:46:39Z</time>
      </trkpt>
      <trkpt lat="46.69644" lon="-1.95086">
        <ele>9.9</ele>
        <time>2018-07-25T06:46:48Z</time>
      </trkpt>
      <trkpt lat="46.69647" lon="-1.95077">
        <ele>9.9</ele>
        <time>2018-07-25T06:46:49Z</time>
      </trkpt>
      <trkpt lat="46.69671" lon="-1.95019">
        <ele>9</ele>
        <time>2018-07-25T06:46:56Z</time>
      </trkpt>
      <trkpt lat="46.69683" lon="-1.94994">
        <ele>7.5</ele>
        <time>2018-07-25T06:46:59Z</time>
      </trkpt>
      <trkpt lat="46.6973" lon="-1.94928">
        <ele>6.3</ele>
        <time>2018-07-25T06:47:08Z</time>
      </trkpt>
      <trkpt lat="46.69735" lon="-1.94921">
        <ele>6.2</ele>
        <time>2018-07-25T06:47:09Z</time>
      </trkpt>
      <trkpt lat="46.6976" lon="-1.94887">
        <ele>6</ele>
        <time>2018-07-25T06:47:14Z</time>
      </trkpt>
      <trkpt lat="46.69776" lon="-1.94841">
        <ele>5.1</ele>
        <time>2018-07-25T06:47:19Z</time>
      </trkpt>
      <trkpt lat="46.6979" lon="-1.94802">
        <ele>3</ele>
        <time>2018-07-25T06:47:24Z</time>
      </trkpt>
      <trkpt lat="46.69806" lon="-1.9476">
        <ele>3</ele>
        <time>2018-07-25T06:47:31Z</time>
      </trkpt>
      <trkpt lat="46.69808" lon="-1.94752">
        <ele>2.4</ele>
        <time>2018-07-25T06:47:34Z</time>
      </trkpt>
      <trkpt lat="46.69812" lon="-1.94737">
        <ele>4</ele>
        <time>2018-07-25T06:47:39Z</time>
      </trkpt>
      <trkpt lat="46.69814" lon="-1.94708">
        <ele>0.3</ele>
        <time>2018-07-25T06:47:44Z</time>
      </trkpt>
      <trkpt lat="46.69809" lon="-1.94681">
        <ele>0.6</ele>
        <time>2018-07-25T06:47:49Z</time>
      </trkpt>
      <trkpt lat="46.69801" lon="-1.94646">
        <ele>0.9</ele>
        <time>2018-07-25T06:47:56Z</time>
      </trkpt>
      <trkpt lat="46.69799" lon="-1.94632">
        <ele>1.1</ele>
        <time>2018-07-25T06:47:59Z</time>
      </trkpt>
      <trkpt lat="46.69791" lon="-1.94593">
        <ele>1.5</ele>
        <time>2018-07-25T06:48:06Z</time>
      </trkpt>
      <trkpt lat="46.69779" lon="-1.94539">
        <ele>2</ele>
        <time>2018-07-25T06:48:13Z</time>
      </trkpt>
      <trkpt lat="46.69774" lon="-1.94523">
        <ele>2.1</ele>
        <time>2018-07-25T06:48:15Z</time>
      </trkpt>
      <trkpt lat="46.69754" lon="-1.94469">
        <ele>2.8</ele>
        <time>2018-07-25T06:48:21Z</time>
      </trkpt>
      <trkpt lat="46.69736" lon="-1.94415">
        <ele>1.1</ele>
        <time>2018-07-25T06:48:27Z</time>
      </trkpt>
      <trkpt lat="46.6973" lon="-1.94396">
        <ele>4.8</ele>
        <time>2018-07-25T06:48:29Z</time>
      </trkpt>
      <trkpt lat="46.69715" lon="-1.94351">
        <ele>0.7</ele>
        <time>2018-07-25T06:48:34Z</time>
      </trkpt>
      <trkpt lat="46.69699" lon="-1.94306">
        <ele>1.6</ele>
        <time>2018-07-25T06:48:39Z</time>
      </trkpt>
      <trkpt lat="46.69689" lon="-1.94261">
        <ele>2</ele>
        <time>2018-07-25T06:48:44Z</time>
      </trkpt>
      <trkpt lat="46.69676" lon="-1.94208">
        <ele>2</ele>
        <time>2018-07-25T06:48:50Z</time>
      </trkpt>
      <trkpt lat="46.69667" lon="-1.94173">
        <ele>2</ele>
        <time>2018-07-25T06:48:54Z</time>
      </trkpt>
      <trkpt lat="46.69657" lon="-1.94133">
        <ele>2</ele>
        <time>2018-07-25T06:48:59Z</time>
      </trkpt>
      <trkpt lat="46.69642" lon="-1.94111">
        <ele>2</ele>
        <time>2018-07-25T06:49:04Z</time>
      </trkpt>
      <trkpt lat="46.69617" lon="-1.94117">
        <ele>2</ele>
        <time>2018-07-25T06:49:09Z</time>
      </trkpt>
      <trkpt lat="46.69598" lon="-1.94083">
        <ele>2.7</ele>
        <time>2018-07-25T06:49:14Z</time>
      </trkpt>
      <trkpt lat="46.69581" lon="-1.94046">
        <ele>2</ele>
        <time>2018-07-25T06:49:19Z</time>
      </trkpt>
      <trkpt lat="46.69565" lon="-1.9401">
        <ele>2.6</ele>
        <time>2018-07-25T06:49:24Z</time>
      </trkpt>
      <trkpt lat="46.69549" lon="-1.93972">
        <ele>3</ele>
        <time>2018-07-25T06:49:29Z</time>
      </trkpt>
      <trkpt lat="46.69534" lon="-1.93933">
        <ele>3.6</ele>
        <time>2018-07-25T06:49:34Z</time>
      </trkpt>
      <trkpt lat="46.69517" lon="-1.93893">
        <ele>4</ele>
        <time>2018-07-25T06:49:39Z</time>
      </trkpt>
      <trkpt lat="46.69497" lon="-1.93853">
        <ele>3.9</ele>
        <time>2018-07-25T06:49:44Z</time>
      </trkpt>
      <trkpt lat="46.69477" lon="-1.93814">
        <ele>3.6</ele>
        <time>2018-07-25T06:49:49Z</time>
      </trkpt>
      <trkpt lat="46.69457" lon="-1.93774">
        <ele>3.3</ele>
        <time>2018-07-25T06:49:54Z</time>
      </trkpt>
      <trkpt lat="46.69441" lon="-1.9373">
        <ele>3</ele>
        <time>2018-07-25T06:49:59Z</time>
      </trkpt>
      <trkpt lat="46.69429" lon="-1.93683">
        <ele>2.7</ele>
        <time>2018-07-25T06:50:04Z</time>
      </trkpt>
      <trkpt lat="46.69422" lon="-1.93636">
        <ele>2.3</ele>
        <time>2018-07-25T06:50:09Z</time>
      </trkpt>
      <trkpt lat="46.6944" lon="-1.93596">
        <ele>1.7</ele>
        <time>2018-07-25T06:50:14Z</time>
      </trkpt>
      <trkpt lat="46.69474" lon="-1.93583">
        <ele>1.2</ele>
        <time>2018-07-25T06:50:19Z</time>
      </trkpt>
      <trkpt lat="46.69507" lon="-1.93572">
        <ele>1.5</ele>
        <time>2018-07-25T06:50:24Z</time>
      </trkpt>
      <trkpt lat="46.69535" lon="-1.93575">
        <ele>2.2</ele>
        <time>2018-07-25T06:50:29Z</time>
      </trkpt>
      <trkpt lat="46.69566" lon="-1.9358">
        <ele>3.4</ele>
        <time>2018-07-25T06:50:34Z</time>
      </trkpt>
      <trkpt lat="46.69592" lon="-1.93576">
        <ele>4</ele>
        <time>2018-07-25T06:50:39Z</time>
      </trkpt>
      <trkpt lat="46.69603" lon="-1.93548">
        <ele>4</ele>
        <time>2018-07-25T06:50:44Z</time>
      </trkpt>
      <trkpt lat="46.69611" lon="-1.93514">
        <ele>4.1</ele>
        <time>2018-07-25T06:50:49Z</time>
      </trkpt>
      <trkpt lat="46.6962" lon="-1.93444">
        <ele>4</ele>
        <time>2018-07-25T06:50:57Z</time>
      </trkpt>
      <trkpt lat="46.6962" lon="-1.93425">
        <ele>4</ele>
        <time>2018-07-25T06:51:00Z</time>
      </trkpt>
      <trkpt lat="46.69636" lon="-1.93416">
        <ele>4</ele>
        <time>2018-07-25T06:51:05Z</time>
      </trkpt>
      <trkpt lat="46.69653" lon="-1.93423">
        <ele>3.6</ele>
        <time>2018-07-25T06:51:09Z</time>
      </trkpt>
      <trkpt lat="46.69678" lon="-1.93432">
        <ele>3</ele>
        <time>2018-07-25T06:51:14Z</time>
      </trkpt>
      <trkpt lat="46.69701" lon="-1.93434">
        <ele>3</ele>
        <time>2018-07-25T06:51:19Z</time>
      </trkpt>
      <trkpt lat="46.69718" lon="-1.93431">
        <ele>3</ele>
        <time>2018-07-25T06:51:24Z</time>
      </trkpt>
      <trkpt lat="46.69736" lon="-1.93424">
        <ele>3</ele>
        <time>2018-07-25T06:51:29Z</time>
      </trkpt>
      <trkpt lat="46.69762" lon="-1.93418">
        <ele>3</ele>
        <time>2018-07-25T06:51:34Z</time>
      </trkpt>
      <trkpt lat="46.69786" lon="-1.93413">
        <ele>3</ele>
        <time>2018-07-25T06:51:39Z</time>
      </trkpt>
      <trkpt lat="46.69805" lon="-1.93408">
        <ele>3.2</ele>
        <time>2018-07-25T06:51:44Z</time>
      </trkpt>
      <trkpt lat="46.69864" lon="-1.93389">
        <ele>4.2</ele>
        <time>2018-07-25T06:51:53Z</time>
      </trkpt>
      <trkpt lat="46.69871" lon="-1.93386">
        <ele>4.3</ele>
        <time>2018-07-25T06:51:54Z</time>
      </trkpt>
      <trkpt lat="46.69906" lon="-1.93377">
        <ele>5</ele>
        <time>2018-07-25T06:51:59Z</time>
      </trkpt>
      <trkpt lat="46.69935" lon="-1.93377">
        <ele>5</ele>
        <time>2018-07-25T06:52:04Z</time>
      </trkpt>
      <trkpt lat="46.6997" lon="-1.93367">
        <ele>4</ele>
        <time>2018-07-25T06:52:09Z</time>
      </trkpt>
      <trkpt lat="46.70005" lon="-1.93375">
        <ele>3.6</ele>
        <time>2018-07-25T06:52:14Z</time>
      </trkpt>
      <trkpt lat="46.70038" lon="-1.93399">
        <ele>3.2</ele>
        <time>2018-07-25T06:52:19Z</time>
      </trkpt>
      <trkpt lat="46.70066" lon="-1.93403">
        <ele>3</ele>
        <time>2018-07-25T06:52:24Z</time>
      </trkpt>
      <trkpt lat="46.70095" lon="-1.934">
        <ele>2.5</ele>
        <time>2018-07-25T06:52:29Z</time>
      </trkpt>
      <trkpt lat="46.70123" lon="-1.93373">
        <ele>2</ele>
        <time>2018-07-25T06:52:34Z</time>
      </trkpt>
      <trkpt lat="46.70142" lon="-1.93394">
        <ele>2</ele>
        <time>2018-07-25T06:52:39Z</time>
      </trkpt>
      <trkpt lat="46.7015" lon="-1.93462">
        <ele>3.8</ele>
        <time>2018-07-25T06:52:45Z</time>
      </trkpt>
      <trkpt lat="46.7016" lon="-1.93501">
        <ele>5.2</ele>
        <time>2018-07-25T06:52:49Z</time>
      </trkpt>
      <trkpt lat="46.70172" lon="-1.93555">
        <ele>6.1</ele>
        <time>2018-07-25T06:52:54Z</time>
      </trkpt>
      <trkpt lat="46.70186" lon="-1.93611">
        <ele>3.5</ele>
        <time>2018-07-25T06:52:59Z</time>
      </trkpt>
      <trkpt lat="46.70203" lon="-1.93689">
        <ele>1.8</ele>
        <time>2018-07-25T06:53:06Z</time>
      </trkpt>
      <trkpt lat="46.70214" lon="-1.93732">
        <ele>1.6</ele>
        <time>2018-07-25T06:53:10Z</time>
      </trkpt>
      <trkpt lat="46.70231" lon="-1.93798">
        <ele>1.4</ele>
        <time>2018-07-25T06:53:16Z</time>
      </trkpt>
      <trkpt lat="46.70242" lon="-1.93832">
        <ele>1.4</ele>
        <time>2018-07-25T06:53:19Z</time>
      </trkpt>
      <trkpt lat="46.70261" lon="-1.93874">
        <ele>2</ele>
        <time>2018-07-25T06:53:24Z</time>
      </trkpt>
      <trkpt lat="46.70285" lon="-1.93915">
        <ele>1.8</ele>
        <time>2018-07-25T06:53:30Z</time>
      </trkpt>
      <trkpt lat="46.7031" lon="-1.93965">
        <ele>1.5</ele>
        <time>2018-07-25T06:53:36Z</time>
      </trkpt>
      <trkpt lat="46.70325" lon="-1.9399">
        <ele>1.5</ele>
        <time>2018-07-25T06:53:39Z</time>
      </trkpt>
      <trkpt lat="46.70368" lon="-1.94046">
        <ele>1.5</ele>
        <time>2018-07-25T06:53:46Z</time>
      </trkpt>
      <trkpt lat="46.70386" lon="-1.94069">
        <ele>1.5</ele>
        <time>2018-07-25T06:53:49Z</time>
      </trkpt>
      <trkpt lat="46.70454" lon="-1.94124">
        <ele>1.5</ele>
        <time>2018-07-25T06:53:58Z</time>
      </trkpt>
      <trkpt lat="46.70487" lon="-1.94137">
        <ele>1.7</ele>
        <time>2018-07-25T06:54:02Z</time>
      </trkpt>
      <trkpt lat="46.70503" lon="-1.94146">
        <ele>1.9</ele>
        <time>2018-07-25T06:54:04Z</time>
      </trkpt>
      <trkpt lat="46.70541" lon="-1.94168">
        <ele>2.5</ele>
        <time>2018-07-25T06:54:09Z</time>
      </trkpt>
      <trkpt lat="46.70578" lon="-1.94183">
        <ele>3.2</ele>
        <time>2018-07-25T06:54:14Z</time>
      </trkpt>
      <trkpt lat="46.70614" lon="-1.94189">
        <ele>3.7</ele>
        <time>2018-07-25T06:54:19Z</time>
      </trkpt>
      <trkpt lat="46.70671" lon="-1.94191">
        <ele>4.9</ele>
        <time>2018-07-25T06:54:27Z</time>
      </trkpt>
      <trkpt lat="46.70683" lon="-1.94191">
        <ele>5</ele>
        <time>2018-07-25T06:54:29Z</time>
      </trkpt>
      <trkpt lat="46.70718" lon="-1.94203">
        <ele>5.1</ele>
        <time>2018-07-25T06:54:34Z</time>
      </trkpt>
      <trkpt lat="46.70755" lon="-1.94203">
        <ele>5.1</ele>
        <time>2018-07-25T06:54:39Z</time>
      </trkpt>
      <trkpt lat="46.70818" lon="-1.94198">
        <ele>5.1</ele>
        <time>2018-07-25T06:54:47Z</time>
      </trkpt>
      <trkpt lat="46.70833" lon="-1.94197">
        <ele>5.1</ele>
        <time>2018-07-25T06:54:49Z</time>
      </trkpt>
      <trkpt lat="46.70874" lon="-1.94188">
        <ele>5.1</ele>
        <time>2018-07-25T06:54:54Z</time>
      </trkpt>
      <trkpt lat="46.70932" lon="-1.94174">
        <ele>5</ele>
        <time>2018-07-25T06:55:02Z</time>
      </trkpt>
      <trkpt lat="46.70963" lon="-1.94165">
        <ele>4.9</ele>
        <time>2018-07-25T06:55:06Z</time>
      </trkpt>
      <trkpt lat="46.70988" lon="-1.94159">
        <ele>4.9</ele>
        <time>2018-07-25T06:55:09Z</time>
      </trkpt>
      <trkpt lat="46.71048" lon="-1.94146">
        <ele>4.8</ele>
        <time>2018-07-25T06:55:16Z</time>
      </trkpt>
      <trkpt lat="46.71073" lon="-1.94141">
        <ele>4.8</ele>
        <time>2018-07-25T06:55:19Z</time>
      </trkpt>
      <trkpt lat="46.71112" lon="-1.94131">
        <ele>4.8</ele>
        <time>2018-07-25T06:55:24Z</time>
      </trkpt>
      <trkpt lat="46.71185" lon="-1.94115">
        <ele>4.5</ele>
        <time>2018-07-25T06:55:33Z</time>
      </trkpt>
      <trkpt lat="46.71194" lon="-1.94114">
        <ele>4.5</ele>
        <time>2018-07-25T06:55:34Z</time>
      </trkpt>
      <trkpt lat="46.71235" lon="-1.94103">
        <ele>4.3</ele>
        <time>2018-07-25T06:55:39Z</time>
      </trkpt>
      <trkpt lat="46.71275" lon="-1.94092">
        <ele>4.3</ele>
        <time>2018-07-25T06:55:44Z</time>
      </trkpt>
      <trkpt lat="46.71315" lon="-1.94085">
        <ele>4.4</ele>
        <time>2018-07-25T06:55:49Z</time>
      </trkpt>
      <trkpt lat="46.71362" lon="-1.94084">
        <ele>4.6</ele>
        <time>2018-07-25T06:55:55Z</time>
      </trkpt>
      <trkpt lat="46.71393" lon="-1.94078">
        <ele>4.6</ele>
        <time>2018-07-25T06:55:59Z</time>
      </trkpt>
      <trkpt lat="46.71431" lon="-1.94068">
        <ele>4.7</ele>
        <time>2018-07-25T06:56:04Z</time>
      </trkpt>
      <trkpt lat="46.71468" lon="-1.94059">
        <ele>4.6</ele>
        <time>2018-07-25T06:56:09Z</time>
      </trkpt>
      <trkpt lat="46.71516" lon="-1.94047">
        <ele>4.6</ele>
        <time>2018-07-25T06:56:15Z</time>
      </trkpt>
      <trkpt lat="46.71547" lon="-1.9404">
        <ele>4.5</ele>
        <time>2018-07-25T06:56:19Z</time>
      </trkpt>
      <trkpt lat="46.71585" lon="-1.94033">
        <ele>4.4</ele>
        <time>2018-07-25T06:56:24Z</time>
      </trkpt>
      <trkpt lat="46.71622" lon="-1.94022">
        <ele>4.2</ele>
        <time>2018-07-25T06:56:29Z</time>
      </trkpt>
      <trkpt lat="46.71663" lon="-1.94015">
        <ele>4</ele>
        <time>2018-07-25T06:56:34Z</time>
      </trkpt>
      <trkpt lat="46.71725" lon="-1.93999">
        <ele>3.6</ele>
        <time>2018-07-25T06:56:42Z</time>
      </trkpt>
      <trkpt lat="46.71742" lon="-1.93995">
        <ele>3.6</ele>
        <time>2018-07-25T06:56:44Z</time>
      </trkpt>
      <trkpt lat="46.71779" lon="-1.93988">
        <ele>3.6</ele>
        <time>2018-07-25T06:56:49Z</time>
      </trkpt>
      <trkpt lat="46.71825" lon="-1.93975">
        <ele>3.7</ele>
        <time>2018-07-25T06:56:56Z</time>
      </trkpt>
      <trkpt lat="46.71846" lon="-1.93972">
        <ele>3.6</ele>
        <time>2018-07-25T06:56:59Z</time>
      </trkpt>
      <trkpt lat="46.71884" lon="-1.93959">
        <ele>3.4</ele>
        <time>2018-07-25T06:57:04Z</time>
      </trkpt>
      <trkpt lat="46.71924" lon="-1.93947">
        <ele>3.1</ele>
        <time>2018-07-25T06:57:09Z</time>
      </trkpt>
      <trkpt lat="46.71972" lon="-1.93933">
        <ele>2.9</ele>
        <time>2018-07-25T06:57:15Z</time>
      </trkpt>
      <trkpt lat="46.72004" lon="-1.93924">
        <ele>2.8</ele>
        <time>2018-07-25T06:57:19Z</time>
      </trkpt>
      <trkpt lat="46.72045" lon="-1.9392">
        <ele>2.7</ele>
        <time>2018-07-25T06:57:24Z</time>
      </trkpt>
      <trkpt lat="46.72087" lon="-1.93925">
        <ele>2.7</ele>
        <time>2018-07-25T06:57:29Z</time>
      </trkpt>
      <trkpt lat="46.72146" lon="-1.93942">
        <ele>2.6</ele>
        <time>2018-07-25T06:57:37Z</time>
      </trkpt>
      <trkpt lat="46.72163" lon="-1.93947">
        <ele>2.6</ele>
        <time>2018-07-25T06:57:39Z</time>
      </trkpt>
      <trkpt lat="46.7222" lon="-1.93981">
        <ele>2.3</ele>
        <time>2018-07-25T06:57:47Z</time>
      </trkpt>
      <trkpt lat="46.72233" lon="-1.93987">
        <ele>2.2</ele>
        <time>2018-07-25T06:57:49Z</time>
      </trkpt>
      <trkpt lat="46.72266" lon="-1.94004">
        <ele>2</ele>
        <time>2018-07-25T06:57:54Z</time>
      </trkpt>
      <trkpt lat="46.72302" lon="-1.94027">
        <ele>2.1</ele>
        <time>2018-07-25T06:57:59Z</time>
      </trkpt>
      <trkpt lat="46.72333" lon="-1.94064">
        <ele>2.2</ele>
        <time>2018-07-25T06:58:04Z</time>
      </trkpt>
      <trkpt lat="46.72367" lon="-1.94116">
        <ele>2.6</ele>
        <time>2018-07-25T06:58:10Z</time>
      </trkpt>
      <trkpt lat="46.72387" lon="-1.94153">
        <ele>3</ele>
        <time>2018-07-25T06:58:14Z</time>
      </trkpt>
      <trkpt lat="46.7241" lon="-1.94196">
        <ele>3.5</ele>
        <time>2018-07-25T06:58:19Z</time>
      </trkpt>
      <trkpt lat="46.72435" lon="-1.94241">
        <ele>4</ele>
        <time>2018-07-25T06:58:24Z</time>
      </trkpt>
      <trkpt lat="46.72459" lon="-1.94284">
        <ele>4.2</ele>
        <time>2018-07-25T06:58:29Z</time>
      </trkpt>
      <trkpt lat="46.72485" lon="-1.94305">
        <ele>4.1</ele>
        <time>2018-07-25T06:58:34Z</time>
      </trkpt>
      <trkpt lat="46.72491" lon="-1.94331">
        <ele>4</ele>
        <time>2018-07-25T06:58:39Z</time>
      </trkpt>
      <trkpt lat="46.72503" lon="-1.94368">
        <ele>4</ele>
        <time>2018-07-25T06:58:44Z</time>
      </trkpt>
      <trkpt lat="46.72526" lon="-1.94398">
        <ele>4</ele>
        <time>2018-07-25T06:58:49Z</time>
      </trkpt>
      <trkpt lat="46.72549" lon="-1.9444">
        <ele>3.9</ele>
        <time>2018-07-25T06:58:54Z</time>
      </trkpt>
      <trkpt lat="46.72571" lon="-1.94482">
        <ele>4</ele>
        <time>2018-07-25T06:58:59Z</time>
      </trkpt>
      <trkpt lat="46.72596" lon="-1.9453">
        <ele>4.5</ele>
        <time>2018-07-25T06:59:04Z</time>
      </trkpt>
      <trkpt lat="46.72622" lon="-1.94576">
        <ele>4.9</ele>
        <time>2018-07-25T06:59:09Z</time>
      </trkpt>
      <trkpt lat="46.7266" lon="-1.9464">
        <ele>5.3</ele>
        <time>2018-07-25T06:59:16Z</time>
      </trkpt>
      <trkpt lat="46.72674" lon="-1.94668">
        <ele>5.4</ele>
        <time>2018-07-25T06:59:19Z</time>
      </trkpt>
      <trkpt lat="46.727" lon="-1.94717">
        <ele>5.5</ele>
        <time>2018-07-25T06:59:24Z</time>
      </trkpt>
      <trkpt lat="46.72726" lon="-1.94762">
        <ele>5.5</ele>
        <time>2018-07-25T06:59:29Z</time>
      </trkpt>
      <trkpt lat="46.72751" lon="-1.94809">
        <ele>5.1</ele>
        <time>2018-07-25T06:59:34Z</time>
      </trkpt>
      <trkpt lat="46.728" lon="-1.94859">
        <ele>4</ele>
        <time>2018-07-25T06:59:43Z</time>
      </trkpt>
      <trkpt lat="46.72807" lon="-1.94861">
        <ele>4</ele>
        <time>2018-07-25T06:59:45Z</time>
      </trkpt>
      <trkpt lat="46.72819" lon="-1.9488">
        <ele>4</ele>
        <time>2018-07-25T06:59:49Z</time>
      </trkpt>
      <trkpt lat="46.72827" lon="-1.94914">
        <ele>4</ele>
        <time>2018-07-25T06:59:55Z</time>
      </trkpt>
      <trkpt lat="46.72842" lon="-1.94919">
        <ele>4.8</ele>
        <time>2018-07-25T06:59:59Z</time>
      </trkpt>
      <trkpt lat="46.7287" lon="-1.94916">
        <ele>5</ele>
        <time>2018-07-25T07:00:04Z</time>
      </trkpt>
      <trkpt lat="46.7291" lon="-1.94925">
        <ele>5</ele>
        <time>2018-07-25T07:00:10Z</time>
      </trkpt>
      <trkpt lat="46.7294" lon="-1.94937">
        <ele>5</ele>
        <time>2018-07-25T07:00:14Z</time>
      </trkpt>
      <trkpt lat="46.73002" lon="-1.94959">
        <ele>5.9</ele>
        <time>2018-07-25T07:00:22Z</time>
      </trkpt>
      <trkpt lat="46.73019" lon="-1.94965">
        <ele>6.1</ele>
        <time>2018-07-25T07:00:24Z</time>
      </trkpt>
      <trkpt lat="46.73073" lon="-1.94987">
        <ele>6.6</ele>
        <time>2018-07-25T07:00:31Z</time>
      </trkpt>
      <trkpt lat="46.73096" lon="-1.94995">
        <ele>6.8</ele>
        <time>2018-07-25T07:00:34Z</time>
      </trkpt>
      <trkpt lat="46.73132" lon="-1.95005">
        <ele>6.9</ele>
        <time>2018-07-25T07:00:39Z</time>
      </trkpt>
      <trkpt lat="46.73173" lon="-1.95013">
        <ele>6.3</ele>
        <time>2018-07-25T07:00:44Z</time>
      </trkpt>
      <trkpt lat="46.73239" lon="-1.95022">
        <ele>5.2</ele>
        <time>2018-07-25T07:00:52Z</time>
      </trkpt>
      <trkpt lat="46.73257" lon="-1.95025">
        <ele>4.9</ele>
        <time>2018-07-25T07:00:54Z</time>
      </trkpt>
      <trkpt lat="46.73326" lon="-1.95038">
        <ele>4</ele>
        <time>2018-07-25T07:01:02Z</time>
      </trkpt>
      <trkpt lat="46.73377" lon="-1.95049">
        <ele>3.3</ele>
        <time>2018-07-25T07:01:08Z</time>
      </trkpt>
      <trkpt lat="46.73387" lon="-1.9505">
        <ele>3.1</ele>
        <time>2018-07-25T07:01:09Z</time>
      </trkpt>
      <trkpt lat="46.73432" lon="-1.95058">
        <ele>4.1</ele>
        <time>2018-07-25T07:01:14Z</time>
      </trkpt>
      <trkpt lat="46.73467" lon="-1.95061">
        <ele>5</ele>
        <time>2018-07-25T07:01:19Z</time>
      </trkpt>
      <trkpt lat="46.73532" lon="-1.95084">
        <ele>3.2</ele>
        <time>2018-07-25T07:01:28Z</time>
      </trkpt>
      <trkpt lat="46.7355" lon="-1.95089">
        <ele>2.7</ele>
        <time>2018-07-25T07:01:30Z</time>
      </trkpt>
      <trkpt lat="46.73585" lon="-1.95109">
        <ele>1.8</ele>
        <time>2018-07-25T07:01:34Z</time>
      </trkpt>
      <trkpt lat="46.73629" lon="-1.95136">
        <ele>0.7</ele>
        <time>2018-07-25T07:01:39Z</time>
      </trkpt>
      <trkpt lat="46.73674" lon="-1.95163">
        <ele>0.5</ele>
        <time>2018-07-25T07:01:44Z</time>
      </trkpt>
      <trkpt lat="46.73716" lon="-1.95189">
        <ele>1.8</ele>
        <time>2018-07-25T07:01:49Z</time>
      </trkpt>
      <trkpt lat="46.73759" lon="-1.95213">
        <ele>3.1</ele>
        <time>2018-07-25T07:01:54Z</time>
      </trkpt>
      <trkpt lat="46.73804" lon="-1.95238">
        <ele>3.9</ele>
        <time>2018-07-25T07:01:59Z</time>
      </trkpt>
      <trkpt lat="46.73852" lon="-1.95254">
        <ele>3.8</ele>
        <time>2018-07-25T07:02:04Z</time>
      </trkpt>
      <trkpt lat="46.73908" lon="-1.95277">
        <ele>3.6</ele>
        <time>2018-07-25T07:02:10Z</time>
      </trkpt>
      <trkpt lat="46.73943" lon="-1.9529">
        <ele>3.5</ele>
        <time>2018-07-25T07:02:14Z</time>
      </trkpt>
      <trkpt lat="46.73987" lon="-1.9531">
        <ele>3.4</ele>
        <time>2018-07-25T07:02:19Z</time>
      </trkpt>
      <trkpt lat="46.74028" lon="-1.95337">
        <ele>3.3</ele>
        <time>2018-07-25T07:02:24Z</time>
      </trkpt>
      <trkpt lat="46.74068" lon="-1.95369">
        <ele>3.1</ele>
        <time>2018-07-25T07:02:29Z</time>
      </trkpt>
      <trkpt lat="46.74111" lon="-1.95398">
        <ele>2.9</ele>
        <time>2018-07-25T07:02:34Z</time>
      </trkpt>
      <trkpt lat="46.74153" lon="-1.95423">
        <ele>2.3</ele>
        <time>2018-07-25T07:02:39Z</time>
      </trkpt>
      <trkpt lat="46.74197" lon="-1.95445">
        <ele>1.6</ele>
        <time>2018-07-25T07:02:44Z</time>
      </trkpt>
      <trkpt lat="46.74243" lon="-1.95464">
        <ele>1</ele>
        <time>2018-07-25T07:02:49Z</time>
      </trkpt>
      <trkpt lat="46.74287" lon="-1.95479">
        <ele>1.2</ele>
        <time>2018-07-25T07:02:54Z</time>
      </trkpt>
      <trkpt lat="46.7433" lon="-1.95485">
        <ele>1.3</ele>
        <time>2018-07-25T07:02:59Z</time>
      </trkpt>
      <trkpt lat="46.74369" lon="-1.95492">
        <ele>1.4</ele>
        <time>2018-07-25T07:03:04Z</time>
      </trkpt>
      <trkpt lat="46.74412" lon="-1.95501">
        <ele>1.1</ele>
        <time>2018-07-25T07:03:09Z</time>
      </trkpt>
      <trkpt lat="46.74449" lon="-1.95514">
        <ele>1</ele>
        <time>2018-07-25T07:03:14Z</time>
      </trkpt>
      <trkpt lat="46.74501" lon="-1.95544">
        <ele>1.3</ele>
        <time>2018-07-25T07:03:21Z</time>
      </trkpt>
      <trkpt lat="46.74544" lon="-1.95554">
        <ele>1.8</ele>
        <time>2018-07-25T07:03:26Z</time>
      </trkpt>
      <trkpt lat="46.74578" lon="-1.95562">
        <ele>1.9</ele>
        <time>2018-07-25T07:03:30Z</time>
      </trkpt>
      <trkpt lat="46.74612" lon="-1.95569">
        <ele>1.7</ele>
        <time>2018-07-25T07:03:34Z</time>
      </trkpt>
      <trkpt lat="46.74653" lon="-1.95577">
        <ele>1.3</ele>
        <time>2018-07-25T07:03:39Z</time>
      </trkpt>
      <trkpt lat="46.74704" lon="-1.95574">
        <ele>0.9</ele>
        <time>2018-07-25T07:03:45Z</time>
      </trkpt>
      <trkpt lat="46.74738" lon="-1.95571">
        <ele>0.8</ele>
        <time>2018-07-25T07:03:49Z</time>
      </trkpt>
      <trkpt lat="46.74779" lon="-1.95571">
        <ele>1</ele>
        <time>2018-07-25T07:03:54Z</time>
      </trkpt>
      <trkpt lat="46.74861" lon="-1.95593">
        <ele>1.1</ele>
        <time>2018-07-25T07:04:03Z</time>
      </trkpt>
      <trkpt lat="46.7487" lon="-1.95596">
        <ele>1.2</ele>
        <time>2018-07-25T07:04:04Z</time>
      </trkpt>
      <trkpt lat="46.74936" lon="-1.95628">
        <ele>1.2</ele>
        <time>2018-07-25T07:04:12Z</time>
      </trkpt>
      <trkpt lat="46.74954" lon="-1.95635">
        <ele>1.3</ele>
        <time>2018-07-25T07:04:14Z</time>
      </trkpt>
      <trkpt lat="46.74996" lon="-1.95655">
        <ele>1.3</ele>
        <time>2018-07-25T07:04:19Z</time>
      </trkpt>
      <trkpt lat="46.7506" lon="-1.95688">
        <ele>1.4</ele>
        <time>2018-07-25T07:04:27Z</time>
      </trkpt>
      <trkpt lat="46.75076" lon="-1.95693">
        <ele>1.4</ele>
        <time>2018-07-25T07:04:29Z</time>
      </trkpt>
      <trkpt lat="46.75117" lon="-1.95702">
        <ele>1.4</ele>
        <time>2018-07-25T07:04:34Z</time>
      </trkpt>
      <trkpt lat="46.75158" lon="-1.95705">
        <ele>1.5</ele>
        <time>2018-07-25T07:04:39Z</time>
      </trkpt>
      <trkpt lat="46.75198" lon="-1.95702">
        <ele>1.5</ele>
        <time>2018-07-25T07:04:44Z</time>
      </trkpt>
      <trkpt lat="46.7524" lon="-1.95706">
        <ele>1.6</ele>
        <time>2018-07-25T07:04:49Z</time>
      </trkpt>
      <trkpt lat="46.7528" lon="-1.95719">
        <ele>1.7</ele>
        <time>2018-07-25T07:04:54Z</time>
      </trkpt>
      <trkpt lat="46.75321" lon="-1.9574">
        <ele>1.7</ele>
        <time>2018-07-25T07:04:59Z</time>
      </trkpt>
      <trkpt lat="46.75361" lon="-1.95766">
        <ele>1.8</ele>
        <time>2018-07-25T07:05:04Z</time>
      </trkpt>
      <trkpt lat="46.75426" lon="-1.95798">
        <ele>1.9</ele>
        <time>2018-07-25T07:05:12Z</time>
      </trkpt>
      <trkpt lat="46.75441" lon="-1.95808">
        <ele>1.9</ele>
        <time>2018-07-25T07:05:14Z</time>
      </trkpt>
      <trkpt lat="46.75479" lon="-1.95826">
        <ele>1.9</ele>
        <time>2018-07-25T07:05:19Z</time>
      </trkpt>
      <trkpt lat="46.75517" lon="-1.95846">
        <ele>2</ele>
        <time>2018-07-25T07:05:24Z</time>
      </trkpt>
      <trkpt lat="46.75556" lon="-1.95862">
        <ele>1.9</ele>
        <time>2018-07-25T07:05:29Z</time>
      </trkpt>
      <trkpt lat="46.75597" lon="-1.95873">
        <ele>1.7</ele>
        <time>2018-07-25T07:05:34Z</time>
      </trkpt>
      <trkpt lat="46.75659" lon="-1.95892">
        <ele>1.5</ele>
        <time>2018-07-25T07:05:42Z</time>
      </trkpt>
      <trkpt lat="46.75674" lon="-1.95898">
        <ele>1.5</ele>
        <time>2018-07-25T07:05:44Z</time>
      </trkpt>
      <trkpt lat="46.75716" lon="-1.95908">
        <ele>1.6</ele>
        <time>2018-07-25T07:05:49Z</time>
      </trkpt>
      <trkpt lat="46.75757" lon="-1.95913">
        <ele>1.8</ele>
        <time>2018-07-25T07:05:54Z</time>
      </trkpt>
      <trkpt lat="46.75798" lon="-1.95914">
        <ele>1.8</ele>
        <time>2018-07-25T07:05:59Z</time>
      </trkpt>
      <trkpt lat="46.75839" lon="-1.95918">
        <ele>1.5</ele>
        <time>2018-07-25T07:06:04Z</time>
      </trkpt>
      <trkpt lat="46.75877" lon="-1.95918">
        <ele>1.2</ele>
        <time>2018-07-25T07:06:09Z</time>
      </trkpt>
      <trkpt lat="46.75935" lon="-1.95922">
        <ele>1.3</ele>
        <time>2018-07-25T07:06:16Z</time>
      </trkpt>
      <trkpt lat="46.75957" lon="-1.95923">
        <ele>1.5</ele>
        <time>2018-07-25T07:06:19Z</time>
      </trkpt>
      <trkpt lat="46.7602" lon="-1.95926">
        <ele>2.1</ele>
        <time>2018-07-25T07:06:27Z</time>
      </trkpt>
      <trkpt lat="46.76037" lon="-1.95934">
        <ele>2.2</ele>
        <time>2018-07-25T07:06:29Z</time>
      </trkpt>
      <trkpt lat="46.76077" lon="-1.95947">
        <ele>2.1</ele>
        <time>2018-07-25T07:06:34Z</time>
      </trkpt>
      <trkpt lat="46.76116" lon="-1.95963">
        <ele>1.8</ele>
        <time>2018-07-25T07:06:39Z</time>
      </trkpt>
      <trkpt lat="46.76163" lon="-1.95983">
        <ele>1.1</ele>
        <time>2018-07-25T07:06:45Z</time>
      </trkpt>
      <trkpt lat="46.76204" lon="-1.95996">
        <ele>0.6</ele>
        <time>2018-07-25T07:06:50Z</time>
      </trkpt>
      <trkpt lat="46.7625" lon="-1.96025">
        <ele>0.3</ele>
        <time>2018-07-25T07:06:56Z</time>
      </trkpt>
      <trkpt lat="46.76287" lon="-1.96051">
        <ele>0.1</ele>
        <time>2018-07-25T07:07:01Z</time>
      </trkpt>
      <trkpt lat="46.76311" lon="-1.96067">
        <ele>2.7</ele>
        <time>2018-07-25T07:07:04Z</time>
      </trkpt>
      <trkpt lat="46.7635" lon="-1.96089">
        <ele>2.8</ele>
        <time>2018-07-25T07:07:09Z</time>
      </trkpt>
      <trkpt lat="46.76387" lon="-1.96102">
        <ele>0.1</ele>
        <time>2018-07-25T07:07:14Z</time>
      </trkpt>
      <trkpt lat="46.76428" lon="-1.96118">
        <ele>0.6</ele>
        <time>2018-07-25T07:07:19Z</time>
      </trkpt>
      <trkpt lat="46.76468" lon="-1.9613">
        <ele>1.3</ele>
        <time>2018-07-25T07:07:24Z</time>
      </trkpt>
      <trkpt lat="46.76508" lon="-1.96145">
        <ele>1.9</ele>
        <time>2018-07-25T07:07:29Z</time>
      </trkpt>
      <trkpt lat="46.76556" lon="-1.96162">
        <ele>1</ele>
        <time>2018-07-25T07:07:35Z</time>
      </trkpt>
      <trkpt lat="46.76586" lon="-1.96172">
        <ele>1.1</ele>
        <time>2018-07-25T07:07:39Z</time>
      </trkpt>
      <trkpt lat="46.76628" lon="-1.96185">
        <ele>1.3</ele>
        <time>2018-07-25T07:07:44Z</time>
      </trkpt>
      <trkpt lat="46.7667" lon="-1.96201">
        <ele>1.6</ele>
        <time>2018-07-25T07:07:49Z</time>
      </trkpt>
      <trkpt lat="46.76708" lon="-1.96215">
        <ele>1.8</ele>
        <time>2018-07-25T07:07:54Z</time>
      </trkpt>
      <trkpt lat="46.76781" lon="-1.96247">
        <ele>1.7</ele>
        <time>2018-07-25T07:08:03Z</time>
      </trkpt>
      <trkpt lat="46.76817" lon="-1.96258">
        <ele>1.4</ele>
        <time>2018-07-25T07:08:07Z</time>
      </trkpt>
      <trkpt lat="46.76842" lon="-1.96263">
        <ele>1.3</ele>
        <time>2018-07-25T07:08:10Z</time>
      </trkpt>
      <trkpt lat="46.76884" lon="-1.96269">
        <ele>1.2</ele>
        <time>2018-07-25T07:08:15Z</time>
      </trkpt>
      <trkpt lat="46.76917" lon="-1.96273">
        <ele>1.7</ele>
        <time>2018-07-25T07:08:19Z</time>
      </trkpt>
      <trkpt lat="46.76957" lon="-1.96279">
        <ele>2.3</ele>
        <time>2018-07-25T07:08:24Z</time>
      </trkpt>
      <trkpt lat="46.77" lon="-1.96286">
        <ele>2.9</ele>
        <time>2018-07-25T07:08:29Z</time>
      </trkpt>
      <trkpt lat="46.77039" lon="-1.96291">
        <ele>3.7</ele>
        <time>2018-07-25T07:08:34Z</time>
      </trkpt>
      <trkpt lat="46.77077" lon="-1.96294">
        <ele>4.3</ele>
        <time>2018-07-25T07:08:39Z</time>
      </trkpt>
      <trkpt lat="46.77115" lon="-1.96297">
        <ele>5</ele>
        <time>2018-07-25T07:08:44Z</time>
      </trkpt>
      <trkpt lat="46.77152" lon="-1.96308">
        <ele>6</ele>
        <time>2018-07-25T07:08:49Z</time>
      </trkpt>
      <trkpt lat="46.77205" lon="-1.96333">
        <ele>7</ele>
        <time>2018-07-25T07:08:56Z</time>
      </trkpt>
      <trkpt lat="46.77226" lon="-1.96351">
        <ele>5.9</ele>
        <time>2018-07-25T07:08:59Z</time>
      </trkpt>
      <trkpt lat="46.77275" lon="-1.96396">
        <ele>5.1</ele>
        <time>2018-07-25T07:09:06Z</time>
      </trkpt>
      <trkpt lat="46.77325" lon="-1.96444">
        <ele>5.6</ele>
        <time>2018-07-25T07:09:13Z</time>
      </trkpt>
      <trkpt lat="46.77332" lon="-1.96452">
        <ele>5.7</ele>
        <time>2018-07-25T07:09:14Z</time>
      </trkpt>
      <trkpt lat="46.77367" lon="-1.96486">
        <ele>6.1</ele>
        <time>2018-07-25T07:09:19Z</time>
      </trkpt>
      <trkpt lat="46.77399" lon="-1.96516">
        <ele>6.4</ele>
        <time>2018-07-25T07:09:24Z</time>
      </trkpt>
      <trkpt lat="46.77451" lon="-1.96569">
        <ele>6.8</ele>
        <time>2018-07-25T07:09:32Z</time>
      </trkpt>
      <trkpt lat="46.77482" lon="-1.96599">
        <ele>6.9</ele>
        <time>2018-07-25T07:09:36Z</time>
      </trkpt>
      <trkpt lat="46.77517" lon="-1.96632">
        <ele>6.8</ele>
        <time>2018-07-25T07:09:41Z</time>
      </trkpt>
      <trkpt lat="46.77555" lon="-1.96666">
        <ele>6.7</ele>
        <time>2018-07-25T07:09:46Z</time>
      </trkpt>
      <trkpt lat="46.77598" lon="-1.96705">
        <ele>6.5</ele>
        <time>2018-07-25T07:09:52Z</time>
      </trkpt>
      <trkpt lat="46.77612" lon="-1.9672">
        <ele>6.5</ele>
        <time>2018-07-25T07:09:54Z</time>
      </trkpt>
      <trkpt lat="46.7766" lon="-1.96764">
        <ele>6.2</ele>
        <time>2018-07-25T07:10:01Z</time>
      </trkpt>
      <trkpt lat="46.77703" lon="-1.96807">
        <ele>5.3</ele>
        <time>2018-07-25T07:10:07Z</time>
      </trkpt>
      <trkpt lat="46.77718" lon="-1.96818">
        <ele>5</ele>
        <time>2018-07-25T07:10:09Z</time>
      </trkpt>
      <trkpt lat="46.77756" lon="-1.96849">
        <ele>4.5</ele>
        <time>2018-07-25T07:10:14Z</time>
      </trkpt>
      <trkpt lat="46.77793" lon="-1.9687">
        <ele>4.2</ele>
        <time>2018-07-25T07:10:19Z</time>
      </trkpt>
      <trkpt lat="46.77841" lon="-1.96886">
        <ele>4</ele>
        <time>2018-07-25T07:10:25Z</time>
      </trkpt>
      <trkpt lat="46.7788" lon="-1.96905">
        <ele>4.1</ele>
        <time>2018-07-25T07:10:30Z</time>
      </trkpt>
      <trkpt lat="46.77912" lon="-1.96918">
        <ele>4.2</ele>
        <time>2018-07-25T07:10:34Z</time>
      </trkpt>
      <trkpt lat="46.77953" lon="-1.96939">
        <ele>4.4</ele>
        <time>2018-07-25T07:10:39Z</time>
      </trkpt>
      <trkpt lat="46.78025" lon="-1.96978">
        <ele>4.8</ele>
        <time>2018-07-25T07:10:48Z</time>
      </trkpt>
      <trkpt lat="46.78033" lon="-1.96982">
        <ele>4.8</ele>
        <time>2018-07-25T07:10:49Z</time>
      </trkpt>
      <trkpt lat="46.78072" lon="-1.97003">
        <ele>4.8</ele>
        <time>2018-07-25T07:10:54Z</time>
      </trkpt>
      <trkpt lat="46.78113" lon="-1.97026">
        <ele>4.7</ele>
        <time>2018-07-25T07:10:59Z</time>
      </trkpt>
      <trkpt lat="46.78152" lon="-1.97047">
        <ele>4.6</ele>
        <time>2018-07-25T07:11:04Z</time>
      </trkpt>
      <trkpt lat="46.78191" lon="-1.97067">
        <ele>4.4</ele>
        <time>2018-07-25T07:11:09Z</time>
      </trkpt>
      <trkpt lat="46.78265" lon="-1.97111">
        <ele>4</ele>
        <time>2018-07-25T07:11:18Z</time>
      </trkpt>
      <trkpt lat="46.78273" lon="-1.97115">
        <ele>4</ele>
        <time>2018-07-25T07:11:19Z</time>
      </trkpt>
      <trkpt lat="46.78327" lon="-1.97145">
        <ele>4.3</ele>
        <time>2018-07-25T07:11:26Z</time>
      </trkpt>
      <trkpt lat="46.7836" lon="-1.97163">
        <ele>4.5</ele>
        <time>2018-07-25T07:11:30Z</time>
      </trkpt>
      <trkpt lat="46.78426" lon="-1.97201">
        <ele>5</ele>
        <time>2018-07-25T07:11:38Z</time>
      </trkpt>
      <trkpt lat="46.78435" lon="-1.97205">
        <ele>5</ele>
        <time>2018-07-25T07:11:39Z</time>
      </trkpt>
      <trkpt lat="46.78477" lon="-1.97227">
        <ele>5</ele>
        <time>2018-07-25T07:11:44Z</time>
      </trkpt>
      <trkpt lat="46.78521" lon="-1.97243">
        <ele>5</ele>
        <time>2018-07-25T07:11:49Z</time>
      </trkpt>
      <trkpt lat="46.78589" lon="-1.97268">
        <ele>5.4</ele>
        <time>2018-07-25T07:11:58Z</time>
      </trkpt>
      <trkpt lat="46.78624" lon="-1.97283">
        <ele>5.1</ele>
        <time>2018-07-25T07:12:02Z</time>
      </trkpt>
      <trkpt lat="46.78641" lon="-1.97292">
        <ele>5</ele>
        <time>2018-07-25T07:12:04Z</time>
      </trkpt>
      <trkpt lat="46.78681" lon="-1.97303">
        <ele>3.4</ele>
        <time>2018-07-25T07:12:09Z</time>
      </trkpt>
      <trkpt lat="46.78727" lon="-1.9732">
        <ele>2.1</ele>
        <time>2018-07-25T07:12:15Z</time>
      </trkpt>
      <trkpt lat="46.78761" lon="-1.9733">
        <ele>2.8</ele>
        <time>2018-07-25T07:12:19Z</time>
      </trkpt>
      <trkpt lat="46.78829" lon="-1.97354">
        <ele>2.5</ele>
        <time>2018-07-25T07:12:28Z</time>
      </trkpt>
      <trkpt lat="46.78836" lon="-1.97356">
        <ele>2.4</ele>
        <time>2018-07-25T07:12:29Z</time>
      </trkpt>
      <trkpt lat="46.78886" lon="-1.97377">
        <ele>2.1</ele>
        <time>2018-07-25T07:12:35Z</time>
      </trkpt>
      <trkpt lat="46.78918" lon="-1.9739">
        <ele>2</ele>
        <time>2018-07-25T07:12:39Z</time>
      </trkpt>
      <trkpt lat="46.78964" lon="-1.97408">
        <ele>1.7</ele>
        <time>2018-07-25T07:12:45Z</time>
      </trkpt>
      <trkpt lat="46.79008" lon="-1.97441">
        <ele>1.5</ele>
        <time>2018-07-25T07:12:51Z</time>
      </trkpt>
      <trkpt lat="46.79027" lon="-1.97465">
        <ele>1.4</ele>
        <time>2018-07-25T07:12:54Z</time>
      </trkpt>
      <trkpt lat="46.79054" lon="-1.97504">
        <ele>1.2</ele>
        <time>2018-07-25T07:12:59Z</time>
      </trkpt>
      <trkpt lat="46.79085" lon="-1.97563">
        <ele>1</ele>
        <time>2018-07-25T07:13:05Z</time>
      </trkpt>
      <trkpt lat="46.79115" lon="-1.97622">
        <ele>1.1</ele>
        <time>2018-07-25T07:13:11Z</time>
      </trkpt>
      <trkpt lat="46.79129" lon="-1.9765">
        <ele>1.2</ele>
        <time>2018-07-25T07:13:14Z</time>
      </trkpt>
      <trkpt lat="46.79177" lon="-1.9774">
        <ele>1.4</ele>
        <time>2018-07-25T07:13:23Z</time>
      </trkpt>
      <trkpt lat="46.79188" lon="-1.97759">
        <ele>1.4</ele>
        <time>2018-07-25T07:13:25Z</time>
      </trkpt>
      <trkpt lat="46.79209" lon="-1.97798">
        <ele>1.6</ele>
        <time>2018-07-25T07:13:29Z</time>
      </trkpt>
      <trkpt lat="46.7925" lon="-1.97881">
        <ele>1.8</ele>
        <time>2018-07-25T07:13:37Z</time>
      </trkpt>
      <trkpt lat="46.79279" lon="-1.97909">
        <ele>2</ele>
        <time>2018-07-25T07:13:41Z</time>
      </trkpt>
      <trkpt lat="46.79304" lon="-1.97926">
        <ele>2</ele>
        <time>2018-07-25T07:13:44Z</time>
      </trkpt>
      <trkpt lat="46.79348" lon="-1.97922">
        <ele>1.5</ele>
        <time>2018-07-25T07:13:49Z</time>
      </trkpt>
      <trkpt lat="46.79389" lon="-1.97916">
        <ele>1.1</ele>
        <time>2018-07-25T07:13:54Z</time>
      </trkpt>
      <trkpt lat="46.7943" lon="-1.97909">
        <ele>0.8</ele>
        <time>2018-07-25T07:13:59Z</time>
      </trkpt>
      <trkpt lat="46.79476" lon="-1.97905">
        <ele>0.5</ele>
        <time>2018-07-25T07:14:05Z</time>
      </trkpt>
      <trkpt lat="46.79543" lon="-1.97895">
        <ele>0.2</ele>
        <time>2018-07-25T07:14:13Z</time>
      </trkpt>
      <trkpt lat="46.79552" lon="-1.97896">
        <ele>0.1</ele>
        <time>2018-07-25T07:14:14Z</time>
      </trkpt>
      <trkpt lat="46.79592" lon="-1.97888">
        <ele>2</ele>
        <time>2018-07-25T07:14:19Z</time>
      </trkpt>
      <trkpt lat="46.79631" lon="-1.97875">
        <ele>0.1</ele>
        <time>2018-07-25T07:14:24Z</time>
      </trkpt>
      <trkpt lat="46.79675" lon="-1.97856">
        <ele>0.1</ele>
        <time>2018-07-25T07:14:30Z</time>
      </trkpt>
      <trkpt lat="46.79708" lon="-1.97844">
        <ele>0.1</ele>
        <time>2018-07-25T07:14:34Z</time>
      </trkpt>
      <trkpt lat="46.79753" lon="-1.97824">
        <ele>0.2</ele>
        <time>2018-07-25T07:14:40Z</time>
      </trkpt>
      <trkpt lat="46.79782" lon="-1.97817">
        <ele>0.2</ele>
        <time>2018-07-25T07:14:44Z</time>
      </trkpt>
      <trkpt lat="46.79852" lon="-1.97837">
        <ele>0.3</ele>
        <time>2018-07-25T07:14:53Z</time>
      </trkpt>
      <trkpt lat="46.79886" lon="-1.97858">
        <ele>0.3</ele>
        <time>2018-07-25T07:14:58Z</time>
      </trkpt>
      <trkpt lat="46.79893" lon="-1.97863">
        <ele>0.3</ele>
        <time>2018-07-25T07:14:59Z</time>
      </trkpt>
      <trkpt lat="46.7993" lon="-1.9789">
        <ele>0.4</ele>
        <time>2018-07-25T07:15:04Z</time>
      </trkpt>
      <trkpt lat="46.79988" lon="-1.97956">
        <ele>0.5</ele>
        <time>2018-07-25T07:15:13Z</time>
      </trkpt>
      <trkpt lat="46.79995" lon="-1.97965">
        <ele>0.5</ele>
        <time>2018-07-25T07:15:14Z</time>
      </trkpt>
      <trkpt lat="46.8003" lon="-1.97999">
        <ele>0.7</ele>
        <time>2018-07-25T07:15:19Z</time>
      </trkpt>
      <trkpt lat="46.80084" lon="-1.98028">
        <ele>0.8</ele>
        <time>2018-07-25T07:15:26Z</time>
      </trkpt>
      <trkpt lat="46.80109" lon="-1.9804">
        <ele>0.9</ele>
        <time>2018-07-25T07:15:29Z</time>
      </trkpt>
      <trkpt lat="46.8018" lon="-1.98068">
        <ele>0.8</ele>
        <time>2018-07-25T07:15:38Z</time>
      </trkpt>
      <trkpt lat="46.80189" lon="-1.98071">
        <ele>0.7</ele>
        <time>2018-07-25T07:15:39Z</time>
      </trkpt>
      <trkpt lat="46.8023" lon="-1.98086">
        <ele>0.5</ele>
        <time>2018-07-25T07:15:44Z</time>
      </trkpt>
      <trkpt lat="46.80297" lon="-1.98133">
        <ele>0.1</ele>
        <time>2018-07-25T07:15:53Z</time>
      </trkpt>
      <trkpt lat="46.80322" lon="-1.98163">
        <ele>2</ele>
        <time>2018-07-25T07:15:57Z</time>
      </trkpt>
      <trkpt lat="46.80336" lon="-1.98179">
        <ele>0.1</ele>
        <time>2018-07-25T07:15:59Z</time>
      </trkpt>
      <trkpt lat="46.80375" lon="-1.98229">
        <ele>-0.1</ele>
        <time>2018-07-25T07:16:05Z</time>
      </trkpt>
      <trkpt lat="46.80401" lon="-1.98257">
        <ele>-0.7</ele>
        <time>2018-07-25T07:16:09Z</time>
      </trkpt>
      <trkpt lat="46.8043" lon="-1.98288">
        <ele>-0.9</ele>
        <time>2018-07-25T07:16:14Z</time>
      </trkpt>
      <trkpt lat="46.80474" lon="-1.98323">
        <ele>0.4</ele>
        <time>2018-07-25T07:16:22Z</time>
      </trkpt>
      <trkpt lat="46.80496" lon="-1.98362">
        <ele>0.6</ele>
        <time>2018-07-25T07:16:27Z</time>
      </trkpt>
      <trkpt lat="46.80507" lon="-1.98379">
        <ele>-0.4</ele>
        <time>2018-07-25T07:16:29Z</time>
      </trkpt>
      <trkpt lat="46.80538" lon="-1.98414">
        <ele>-0.9</ele>
        <time>2018-07-25T07:16:34Z</time>
      </trkpt>
      <trkpt lat="46.80571" lon="-1.98447">
        <ele>-0.8</ele>
        <time>2018-07-25T07:16:39Z</time>
      </trkpt>
      <trkpt lat="46.80606" lon="-1.98488">
        <ele>-1.2</ele>
        <time>2018-07-25T07:16:44Z</time>
      </trkpt>
      <trkpt lat="46.80666" lon="-1.98551">
        <ele>-1.6</ele>
        <time>2018-07-25T07:16:53Z</time>
      </trkpt>
      <trkpt lat="46.80694" lon="-1.9858">
        <ele>-1.4</ele>
        <time>2018-07-25T07:16:57Z</time>
      </trkpt>
      <trkpt lat="46.80708" lon="-1.98595">
        <ele>-1.4</ele>
        <time>2018-07-25T07:16:59Z</time>
      </trkpt>
      <trkpt lat="46.8077" lon="-1.98659">
        <ele>-1.6</ele>
        <time>2018-07-25T07:17:08Z</time>
      </trkpt>
      <trkpt lat="46.80777" lon="-1.98666">
        <ele>-1.6</ele>
        <time>2018-07-25T07:17:09Z</time>
      </trkpt>
      <trkpt lat="46.80811" lon="-1.98703">
        <ele>-1.2</ele>
        <time>2018-07-25T07:17:14Z</time>
      </trkpt>
      <trkpt lat="46.80846" lon="-1.98736">
        <ele>-0.9</ele>
        <time>2018-07-25T07:17:19Z</time>
      </trkpt>
      <trkpt lat="46.80883" lon="-1.98769">
        <ele>-0.5</ele>
        <time>2018-07-25T07:17:24Z</time>
      </trkpt>
      <trkpt lat="46.80917" lon="-1.98796">
        <ele>-0.3</ele>
        <time>2018-07-25T07:17:29Z</time>
      </trkpt>
      <trkpt lat="46.80959" lon="-1.98828">
        <ele>2</ele>
        <time>2018-07-25T07:17:35Z</time>
      </trkpt>
      <trkpt lat="46.80989" lon="-1.98852">
        <ele>0.1</ele>
        <time>2018-07-25T07:17:39Z</time>
      </trkpt>
      <trkpt lat="46.81026" lon="-1.98884">
        <ele>0.3</ele>
        <time>2018-07-25T07:17:44Z</time>
      </trkpt>
      <trkpt lat="46.81061" lon="-1.9891">
        <ele>0.6</ele>
        <time>2018-07-25T07:17:49Z</time>
      </trkpt>
      <trkpt lat="46.8113" lon="-1.98893">
        <ele>1.3</ele>
        <time>2018-07-25T07:17:57Z</time>
      </trkpt>
      <trkpt lat="46.81145" lon="-1.98874">
        <ele>1.5</ele>
        <time>2018-07-25T07:17:59Z</time>
      </trkpt>
      <trkpt lat="46.81206" lon="-1.98816">
        <ele>0.9</ele>
        <time>2018-07-25T07:18:08Z</time>
      </trkpt>
      <trkpt lat="46.81215" lon="-1.98818">
        <ele>0.8</ele>
        <time>2018-07-25T07:18:09Z</time>
      </trkpt>
      <trkpt lat="46.81255" lon="-1.98841">
        <ele>0.9</ele>
        <time>2018-07-25T07:18:14Z</time>
      </trkpt>
      <trkpt lat="46.81309" lon="-1.98892">
        <ele>1.6</ele>
        <time>2018-07-25T07:18:21Z</time>
      </trkpt>
      <trkpt lat="46.81362" lon="-1.98952">
        <ele>1</ele>
        <time>2018-07-25T07:18:28Z</time>
      </trkpt>
      <trkpt lat="46.81374" lon="-1.98962">
        <ele>0.9</ele>
        <time>2018-07-25T07:18:30Z</time>
      </trkpt>
      <trkpt lat="46.81428" lon="-1.99008">
        <ele>1.2</ele>
        <time>2018-07-25T07:18:37Z</time>
      </trkpt>
      <trkpt lat="46.81443" lon="-1.99025">
        <ele>1.4</ele>
        <time>2018-07-25T07:18:39Z</time>
      </trkpt>
      <trkpt lat="46.81484" lon="-1.99068">
        <ele>1.7</ele>
        <time>2018-07-25T07:18:44Z</time>
      </trkpt>
      <trkpt lat="46.8154" lon="-1.99108">
        <ele>2</ele>
        <time>2018-07-25T07:18:51Z</time>
      </trkpt>
      <trkpt lat="46.81552" lon="-1.99138">
        <ele>2</ele>
        <time>2018-07-25T07:18:54Z</time>
      </trkpt>
      <trkpt lat="46.81586" lon="-1.99171">
        <ele>1.7</ele>
        <time>2018-07-25T07:19:00Z</time>
      </trkpt>
      <trkpt lat="46.81627" lon="-1.99207">
        <ele>0.5</ele>
        <time>2018-07-25T07:19:06Z</time>
      </trkpt>
      <trkpt lat="46.81675" lon="-1.99229">
        <ele>2</ele>
        <time>2018-07-25T07:19:12Z</time>
      </trkpt>
      <trkpt lat="46.81691" lon="-1.99232">
        <ele>2</ele>
        <time>2018-07-25T07:19:14Z</time>
      </trkpt>
      <trkpt lat="46.81734" lon="-1.99241">
        <ele>2</ele>
        <time>2018-07-25T07:19:19Z</time>
      </trkpt>
      <trkpt lat="46.81797" lon="-1.99258">
        <ele>0.9</ele>
        <time>2018-07-25T07:19:26Z</time>
      </trkpt>
      <trkpt lat="46.81823" lon="-1.99264">
        <ele>1.3</ele>
        <time>2018-07-25T07:19:29Z</time>
      </trkpt>
      <trkpt lat="46.81875" lon="-1.99279">
        <ele>2</ele>
        <time>2018-07-25T07:19:37Z</time>
      </trkpt>
      <trkpt lat="46.81885" lon="-1.99282">
        <ele>2</ele>
        <time>2018-07-25T07:19:42Z</time>
      </trkpt>
      <trkpt lat="46.81889" lon="-1.99282">
        <ele>2</ele>
        <time>2018-07-25T07:19:44Z</time>
      </trkpt>
      <trkpt lat="46.81911" lon="-1.99284">
        <ele>2</ele>
        <time>2018-07-25T07:19:50Z</time>
      </trkpt>
      <trkpt lat="46.81911" lon="-1.9931">
        <ele>2</ele>
        <time>2018-07-25T07:19:54Z</time>
      </trkpt>
      <trkpt lat="46.81894" lon="-1.99339">
        <ele>2</ele>
        <time>2018-07-25T07:19:59Z</time>
      </trkpt>
      <trkpt lat="46.81873" lon="-1.99385">
        <ele>1.9</ele>
        <time>2018-07-25T07:20:05Z</time>
      </trkpt>
      <trkpt lat="46.81848" lon="-1.99448">
        <ele>1.8</ele>
        <time>2018-07-25T07:20:11Z</time>
      </trkpt>
      <trkpt lat="46.81832" lon="-1.99484">
        <ele>1.6</ele>
        <time>2018-07-25T07:20:15Z</time>
      </trkpt>
      <trkpt lat="46.81812" lon="-1.99532">
        <ele>1.4</ele>
        <time>2018-07-25T07:20:20Z</time>
      </trkpt>
      <trkpt lat="46.8178" lon="-1.99599">
        <ele>1.1</ele>
        <time>2018-07-25T07:20:26Z</time>
      </trkpt>
      <trkpt lat="46.81767" lon="-1.99636">
        <ele>1</ele>
        <time>2018-07-25T07:20:29Z</time>
      </trkpt>
      <trkpt lat="46.81737" lon="-1.99717">
        <ele>1.8</ele>
        <time>2018-07-25T07:20:36Z</time>
      </trkpt>
      <trkpt lat="46.81724" lon="-1.99747">
        <ele>2</ele>
        <time>2018-07-25T07:20:39Z</time>
      </trkpt>
      <trkpt lat="46.81701" lon="-1.99801">
        <ele>2.5</ele>
        <time>2018-07-25T07:20:44Z</time>
      </trkpt>
      <trkpt lat="46.81672" lon="-1.99874">
        <ele>2.9</ele>
        <time>2018-07-25T07:20:51Z</time>
      </trkpt>
      <trkpt lat="46.81645" lon="-1.99945">
        <ele>3</ele>
        <time>2018-07-25T07:20:58Z</time>
      </trkpt>
      <trkpt lat="46.81642" lon="-1.99955">
        <ele>2.9</ele>
        <time>2018-07-25T07:20:59Z</time>
      </trkpt>
      <trkpt lat="46.81626" lon="-1.99998">
        <ele>2.6</ele>
        <time>2018-07-25T07:21:04Z</time>
      </trkpt>
      <trkpt lat="46.81599" lon="-2.00053">
        <ele>2.3</ele>
        <time>2018-07-25T07:21:10Z</time>
      </trkpt>
      <trkpt lat="46.81568" lon="-2.00131">
        <ele>1.9</ele>
        <time>2018-07-25T07:21:18Z</time>
      </trkpt>
      <trkpt lat="46.81563" lon="-2.00142">
        <ele>1.8</ele>
        <time>2018-07-25T07:21:19Z</time>
      </trkpt>
      <trkpt lat="46.81536" lon="-2.00202">
        <ele>1.5</ele>
        <time>2018-07-25T07:21:25Z</time>
      </trkpt>
      <trkpt lat="46.81518" lon="-2.00245">
        <ele>1.2</ele>
        <time>2018-07-25T07:21:29Z</time>
      </trkpt>
      <trkpt lat="46.81491" lon="-2.00306">
        <ele>1</ele>
        <time>2018-07-25T07:21:35Z</time>
      </trkpt>
      <trkpt lat="46.81474" lon="-2.00347">
        <ele>1.1</ele>
        <time>2018-07-25T07:21:39Z</time>
      </trkpt>
      <trkpt lat="46.81449" lon="-2.00407">
        <ele>1.2</ele>
        <time>2018-07-25T07:21:45Z</time>
      </trkpt>
      <trkpt lat="46.81431" lon="-2.00448">
        <ele>1.2</ele>
        <time>2018-07-25T07:21:49Z</time>
      </trkpt>
      <trkpt lat="46.8141" lon="-2.00501">
        <ele>1.3</ele>
        <time>2018-07-25T07:21:54Z</time>
      </trkpt>
      <trkpt lat="46.81388" lon="-2.00554">
        <ele>1.3</ele>
        <time>2018-07-25T07:21:59Z</time>
      </trkpt>
      <trkpt lat="46.81366" lon="-2.00605">
        <ele>1.4</ele>
        <time>2018-07-25T07:22:04Z</time>
      </trkpt>
      <trkpt lat="46.81343" lon="-2.00656">
        <ele>1.4</ele>
        <time>2018-07-25T07:22:09Z</time>
      </trkpt>
      <trkpt lat="46.81322" lon="-2.00708">
        <ele>1.5</ele>
        <time>2018-07-25T07:22:14Z</time>
      </trkpt>
      <trkpt lat="46.81302" lon="-2.00763">
        <ele>1.5</ele>
        <time>2018-07-25T07:22:19Z</time>
      </trkpt>
      <trkpt lat="46.81279" lon="-2.00816">
        <ele>1.6</ele>
        <time>2018-07-25T07:22:24Z</time>
      </trkpt>
      <trkpt lat="46.81255" lon="-2.00872">
        <ele>1.6</ele>
        <time>2018-07-25T07:22:29Z</time>
      </trkpt>
      <trkpt lat="46.81233" lon="-2.00928">
        <ele>1.7</ele>
        <time>2018-07-25T07:22:34Z</time>
      </trkpt>
      <trkpt lat="46.8121" lon="-2.00982">
        <ele>1.8</ele>
        <time>2018-07-25T07:22:39Z</time>
      </trkpt>
      <trkpt lat="46.81183" lon="-2.01047">
        <ele>1.8</ele>
        <time>2018-07-25T07:22:45Z</time>
      </trkpt>
      <trkpt lat="46.81164" lon="-2.01089">
        <ele>1.9</ele>
        <time>2018-07-25T07:22:49Z</time>
      </trkpt>
      <trkpt lat="46.81137" lon="-2.01155">
        <ele>1.9</ele>
        <time>2018-07-25T07:22:55Z</time>
      </trkpt>
      <trkpt lat="46.81119" lon="-2.01201">
        <ele>2</ele>
        <time>2018-07-25T07:22:59Z</time>
      </trkpt>
      <trkpt lat="46.81091" lon="-2.01267">
        <ele>2</ele>
        <time>2018-07-25T07:23:05Z</time>
      </trkpt>
      <trkpt lat="46.81072" lon="-2.01311">
        <ele>1.8</ele>
        <time>2018-07-25T07:23:09Z</time>
      </trkpt>
      <trkpt lat="46.8105" lon="-2.01364">
        <ele>1.4</ele>
        <time>2018-07-25T07:23:14Z</time>
      </trkpt>
      <trkpt lat="46.81036" lon="-2.01397">
        <ele>1.5</ele>
        <time>2018-07-25T07:23:19Z</time>
      </trkpt>
      <trkpt lat="46.81022" lon="-2.0143">
        <ele>1.5</ele>
        <time>2018-07-25T07:23:24Z</time>
      </trkpt>
      <trkpt lat="46.81008" lon="-2.01464">
        <ele>1</ele>
        <time>2018-07-25T07:23:29Z</time>
      </trkpt>
      <trkpt lat="46.80984" lon="-2.01513">
        <ele>0.4</ele>
        <time>2018-07-25T07:23:38Z</time>
      </trkpt>
      <trkpt lat="46.8098" lon="-2.01526">
        <ele>0.5</ele>
        <time>2018-07-25T07:23:40Z</time>
      </trkpt>
      <trkpt lat="46.80964" lon="-2.01564">
        <ele>0.7</ele>
        <time>2018-07-25T07:23:46Z</time>
      </trkpt>
      <trkpt lat="46.80952" lon="-2.01594">
        <ele>1.1</ele>
        <time>2018-07-25T07:23:50Z</time>
      </trkpt>
      <trkpt lat="46.80936" lon="-2.01633">
        <ele>1.6</ele>
        <time>2018-07-25T07:23:54Z</time>
      </trkpt>
      <trkpt lat="46.80914" lon="-2.01685">
        <ele>1.9</ele>
        <time>2018-07-25T07:23:59Z</time>
      </trkpt>
      <trkpt lat="46.80878" lon="-2.0177">
        <ele>2</ele>
        <time>2018-07-25T07:24:07Z</time>
      </trkpt>
      <trkpt lat="46.80869" lon="-2.01791">
        <ele>1.9</ele>
        <time>2018-07-25T07:24:09Z</time>
      </trkpt>
      <trkpt lat="46.80843" lon="-2.01866">
        <ele>2</ele>
        <time>2018-07-25T07:24:16Z</time>
      </trkpt>
      <trkpt lat="46.80845" lon="-2.01893">
        <ele>3</ele>
        <time>2018-07-25T07:24:19Z</time>
      </trkpt>
      <trkpt lat="46.80832" lon="-2.01913">
        <ele>3</ele>
        <time>2018-07-25T07:24:24Z</time>
      </trkpt>
      <trkpt lat="46.80813" lon="-2.0194">
        <ele>2.8</ele>
        <time>2018-07-25T07:24:29Z</time>
      </trkpt>
      <trkpt lat="46.80794" lon="-2.01988">
        <ele>2.4</ele>
        <time>2018-07-25T07:24:34Z</time>
      </trkpt>
      <trkpt lat="46.80763" lon="-2.02045">
        <ele>2</ele>
        <time>2018-07-25T07:24:40Z</time>
      </trkpt>
      <trkpt lat="46.80735" lon="-2.02118">
        <ele>1.6</ele>
        <time>2018-07-25T07:24:48Z</time>
      </trkpt>
      <trkpt lat="46.80732" lon="-2.02128">
        <ele>1.5</ele>
        <time>2018-07-25T07:24:49Z</time>
      </trkpt>
      <trkpt lat="46.80696" lon="-2.0221">
        <ele>1.1</ele>
        <time>2018-07-25T07:24:57Z</time>
      </trkpt>
      <trkpt lat="46.80688" lon="-2.02231">
        <ele>1</ele>
        <time>2018-07-25T07:24:59Z</time>
      </trkpt>
      <trkpt lat="46.80665" lon="-2.02285">
        <ele>1.1</ele>
        <time>2018-07-25T07:25:04Z</time>
      </trkpt>
      <trkpt lat="46.80644" lon="-2.02333">
        <ele>1.2</ele>
        <time>2018-07-25T07:25:09Z</time>
      </trkpt>
      <trkpt lat="46.80619" lon="-2.02389">
        <ele>1.3</ele>
        <time>2018-07-25T07:25:15Z</time>
      </trkpt>
      <trkpt lat="46.80602" lon="-2.02429">
        <ele>1.3</ele>
        <time>2018-07-25T07:25:19Z</time>
      </trkpt>
      <trkpt lat="46.80579" lon="-2.02484">
        <ele>1.5</ele>
        <time>2018-07-25T07:25:25Z</time>
      </trkpt>
      <trkpt lat="46.8056" lon="-2.02542">
        <ele>1.6</ele>
        <time>2018-07-25T07:25:31Z</time>
      </trkpt>
      <trkpt lat="46.8054" lon="-2.02587">
        <ele>1.8</ele>
        <time>2018-07-25T07:25:35Z</time>
      </trkpt>
      <trkpt lat="46.805" lon="-2.02673">
        <ele>2</ele>
        <time>2018-07-25T07:25:43Z</time>
      </trkpt>
      <trkpt lat="46.80487" lon="-2.02703">
        <ele>2.3</ele>
        <time>2018-07-25T07:25:46Z</time>
      </trkpt>
      <trkpt lat="46.80473" lon="-2.02731">
        <ele>2.6</ele>
        <time>2018-07-25T07:25:49Z</time>
      </trkpt>
      <trkpt lat="46.80452" lon="-2.02783">
        <ele>3</ele>
        <time>2018-07-25T07:25:54Z</time>
      </trkpt>
      <trkpt lat="46.80433" lon="-2.02831">
        <ele>3</ele>
        <time>2018-07-25T07:25:59Z</time>
      </trkpt>
      <trkpt lat="46.80412" lon="-2.0288">
        <ele>3</ele>
        <time>2018-07-25T07:26:04Z</time>
      </trkpt>
      <trkpt lat="46.80376" lon="-2.02974">
        <ele>3</ele>
        <time>2018-07-25T07:26:13Z</time>
      </trkpt>
      <trkpt lat="46.80372" lon="-2.02985">
        <ele>3</ele>
        <time>2018-07-25T07:26:14Z</time>
      </trkpt>
      <trkpt lat="46.80348" lon="-2.03036">
        <ele>3</ele>
        <time>2018-07-25T07:26:19Z</time>
      </trkpt>
      <trkpt lat="46.80323" lon="-2.03094">
        <ele>3</ele>
        <time>2018-07-25T07:26:24Z</time>
      </trkpt>
      <trkpt lat="46.80283" lon="-2.03192">
        <ele>3.1</ele>
        <time>2018-07-25T07:26:33Z</time>
      </trkpt>
      <trkpt lat="46.80278" lon="-2.03203">
        <ele>3.1</ele>
        <time>2018-07-25T07:26:34Z</time>
      </trkpt>
      <trkpt lat="46.80255" lon="-2.03258">
        <ele>3.1</ele>
        <time>2018-07-25T07:26:39Z</time>
      </trkpt>
      <trkpt lat="46.80232" lon="-2.03312">
        <ele>3.1</ele>
        <time>2018-07-25T07:26:44Z</time>
      </trkpt>
      <trkpt lat="46.8019" lon="-2.0341">
        <ele>3.1</ele>
        <time>2018-07-25T07:26:53Z</time>
      </trkpt>
      <trkpt lat="46.80185" lon="-2.0342">
        <ele>3.1</ele>
        <time>2018-07-25T07:26:54Z</time>
      </trkpt>
      <trkpt lat="46.80165" lon="-2.03471">
        <ele>3.1</ele>
        <time>2018-07-25T07:26:59Z</time>
      </trkpt>
      <trkpt lat="46.80142" lon="-2.03522">
        <ele>3.1</ele>
        <time>2018-07-25T07:27:04Z</time>
      </trkpt>
      <trkpt lat="46.80118" lon="-2.03577">
        <ele>3.1</ele>
        <time>2018-07-25T07:27:09Z</time>
      </trkpt>
      <trkpt lat="46.80095" lon="-2.03635">
        <ele>3.1</ele>
        <time>2018-07-25T07:27:14Z</time>
      </trkpt>
      <trkpt lat="46.8007" lon="-2.03693">
        <ele>3</ele>
        <time>2018-07-25T07:27:19Z</time>
      </trkpt>
      <trkpt lat="46.80045" lon="-2.03752">
        <ele>3</ele>
        <time>2018-07-25T07:27:24Z</time>
      </trkpt>
      <trkpt lat="46.80021" lon="-2.03811">
        <ele>2.9</ele>
        <time>2018-07-25T07:27:29Z</time>
      </trkpt>
      <trkpt lat="46.79996" lon="-2.03871">
        <ele>2.9</ele>
        <time>2018-07-25T07:27:34Z</time>
      </trkpt>
      <trkpt lat="46.7997" lon="-2.03933">
        <ele>2.8</ele>
        <time>2018-07-25T07:27:39Z</time>
      </trkpt>
      <trkpt lat="46.79944" lon="-2.03994">
        <ele>2.7</ele>
        <time>2018-07-25T07:27:44Z</time>
      </trkpt>
      <trkpt lat="46.79919" lon="-2.04054">
        <ele>2.6</ele>
        <time>2018-07-25T07:27:49Z</time>
      </trkpt>
      <trkpt lat="46.79894" lon="-2.0411">
        <ele>2.4</ele>
        <time>2018-07-25T07:27:54Z</time>
      </trkpt>
      <trkpt lat="46.79872" lon="-2.04166">
        <ele>2.2</ele>
        <time>2018-07-25T07:27:59Z</time>
      </trkpt>
      <trkpt lat="46.7985" lon="-2.0422">
        <ele>2.1</ele>
        <time>2018-07-25T07:28:04Z</time>
      </trkpt>
      <trkpt lat="46.79825" lon="-2.04272">
        <ele>2.1</ele>
        <time>2018-07-25T07:28:09Z</time>
      </trkpt>
      <trkpt lat="46.79804" lon="-2.04322">
        <ele>2.3</ele>
        <time>2018-07-25T07:28:14Z</time>
      </trkpt>
      <trkpt lat="46.79782" lon="-2.04374">
        <ele>2.7</ele>
        <time>2018-07-25T07:28:19Z</time>
      </trkpt>
      <trkpt lat="46.79758" lon="-2.04435">
        <ele>3.2</ele>
        <time>2018-07-25T07:28:25Z</time>
      </trkpt>
      <trkpt lat="46.7974" lon="-2.04476">
        <ele>3.5</ele>
        <time>2018-07-25T07:28:29Z</time>
      </trkpt>
      <trkpt lat="46.79721" lon="-2.04522">
        <ele>3.9</ele>
        <time>2018-07-25T07:28:34Z</time>
      </trkpt>
      <trkpt lat="46.79698" lon="-2.04589">
        <ele>3.5</ele>
        <time>2018-07-25T07:28:41Z</time>
      </trkpt>
      <trkpt lat="46.79707" lon="-2.0461">
        <ele>2.9</ele>
        <time>2018-07-25T07:28:44Z</time>
      </trkpt>
      <trkpt lat="46.79716" lon="-2.04657">
        <ele>2.3</ele>
        <time>2018-07-25T07:28:49Z</time>
      </trkpt>
      <trkpt lat="46.79712" lon="-2.04692">
        <ele>2</ele>
        <time>2018-07-25T07:28:55Z</time>
      </trkpt>
      <trkpt lat="46.79703" lon="-2.04699">
        <ele>2</ele>
        <time>2018-07-25T07:28:59Z</time>
      </trkpt>
      <trkpt lat="46.79686" lon="-2.04699">
        <ele>2</ele>
        <time>2018-07-25T07:29:04Z</time>
      </trkpt>
      <trkpt lat="46.79655" lon="-2.04703">
        <ele>3</ele>
        <time>2018-07-25T07:29:09Z</time>
      </trkpt>
      <trkpt lat="46.79631" lon="-2.04734">
        <ele>3</ele>
        <time>2018-07-25T07:29:14Z</time>
      </trkpt>
      <trkpt lat="46.79598" lon="-2.04808">
        <ele>2.8</ele>
        <time>2018-07-25T07:29:22Z</time>
      </trkpt>
      <trkpt lat="46.79587" lon="-2.04849">
        <ele>2.5</ele>
        <time>2018-07-25T07:29:26Z</time>
      </trkpt>
      <trkpt lat="46.79565" lon="-2.04892">
        <ele>2</ele>
        <time>2018-07-25T07:29:31Z</time>
      </trkpt>
      <trkpt lat="46.79552" lon="-2.0492">
        <ele>2.2</ele>
        <time>2018-07-25T07:29:34Z</time>
      </trkpt>
      <trkpt lat="46.7953" lon="-2.04973">
        <ele>2.6</ele>
        <time>2018-07-25T07:29:39Z</time>
      </trkpt>
      <trkpt lat="46.79497" lon="-2.05051">
        <ele>3.4</ele>
        <time>2018-07-25T07:29:46Z</time>
      </trkpt>
      <trkpt lat="46.7947" lon="-2.05128">
        <ele>4.2</ele>
        <time>2018-07-25T07:29:53Z</time>
      </trkpt>
      <trkpt lat="46.79466" lon="-2.05139">
        <ele>4.4</ele>
        <time>2018-07-25T07:29:54Z</time>
      </trkpt>
      <trkpt lat="46.79445" lon="-2.05185">
        <ele>5</ele>
        <time>2018-07-25T07:29:59Z</time>
      </trkpt>
      <trkpt lat="46.79444" lon="-2.05204">
        <ele>5</ele>
        <time>2018-07-25T07:30:04Z</time>
      </trkpt>
      <trkpt lat="46.79437" lon="-2.05231">
        <ele>5</ele>
        <time>2018-07-25T07:30:09Z</time>
      </trkpt>
      <trkpt lat="46.79414" lon="-2.05259">
        <ele>5.7</ele>
        <time>2018-07-25T07:30:14Z</time>
      </trkpt>
      <trkpt lat="46.79388" lon="-2.05303">
        <ele>5.2</ele>
        <time>2018-07-25T07:30:19Z</time>
      </trkpt>
      <trkpt lat="46.79364" lon="-2.05353">
        <ele>4</ele>
        <time>2018-07-25T07:30:24Z</time>
      </trkpt>
      <trkpt lat="46.79341" lon="-2.05406">
        <ele>3.5</ele>
        <time>2018-07-25T07:30:29Z</time>
      </trkpt>
      <trkpt lat="46.7932" lon="-2.05459">
        <ele>2.4</ele>
        <time>2018-07-25T07:30:34Z</time>
      </trkpt>
      <trkpt lat="46.79279" lon="-2.05557">
        <ele>3.7</ele>
        <time>2018-07-25T07:30:43Z</time>
      </trkpt>
      <trkpt lat="46.79275" lon="-2.05568">
        <ele>4</ele>
        <time>2018-07-25T07:30:44Z</time>
      </trkpt>
      <trkpt lat="46.79258" lon="-2.05611">
        <ele>3.9</ele>
        <time>2018-07-25T07:30:49Z</time>
      </trkpt>
      <trkpt lat="46.79246" lon="-2.05628">
        <ele>2</ele>
        <time>2018-07-25T07:30:54Z</time>
      </trkpt>
      <trkpt lat="46.79232" lon="-2.05592">
        <ele>2</ele>
        <time>2018-07-25T07:31:00Z</time>
      </trkpt>
      <trkpt lat="46.79222" lon="-2.05556">
        <ele>1.9</ele>
        <time>2018-07-25T07:31:04Z</time>
      </trkpt>
      <trkpt lat="46.79211" lon="-2.05506">
        <ele>1.3</ele>
        <time>2018-07-25T07:31:09Z</time>
      </trkpt>
      <trkpt lat="46.79198" lon="-2.05442">
        <ele>1.6</ele>
        <time>2018-07-25T07:31:15Z</time>
      </trkpt>
      <trkpt lat="46.79194" lon="-2.05402">
        <ele>1.9</ele>
        <time>2018-07-25T07:31:19Z</time>
      </trkpt>
      <trkpt lat="46.79174" lon="-2.05388">
        <ele>2</ele>
        <time>2018-07-25T07:31:27Z</time>
      </trkpt>
      <trkpt lat="46.79156" lon="-2.05421">
        <ele>2.1</ele>
        <time>2018-07-25T07:31:31Z</time>
      </trkpt>
      <trkpt lat="46.7914" lon="-2.05452">
        <ele>2.5</ele>
        <time>2018-07-25T07:31:34Z</time>
      </trkpt>
      <trkpt lat="46.79118" lon="-2.05515">
        <ele>2.9</ele>
        <time>2018-07-25T07:31:40Z</time>
      </trkpt>
      <trkpt lat="46.79116" lon="-2.05553">
        <ele>3</ele>
        <time>2018-07-25T07:31:44Z</time>
      </trkpt>
      <trkpt lat="46.79115" lon="-2.05603">
        <ele>3</ele>
        <time>2018-07-25T07:31:50Z</time>
      </trkpt>
      <trkpt lat="46.79091" lon="-2.05629">
        <ele>8.4</ele>
        <time>2018-07-25T07:31:56Z</time>
      </trkpt>
      <trkpt lat="46.79073" lon="-2.05687">
        <ele>15.5</ele>
        <time>2018-07-25T07:32:02Z</time>
      </trkpt>
      <trkpt lat="46.79053" lon="-2.05764">
        <ele>13.3</ele>
        <time>2018-07-25T07:32:08Z</time>
      </trkpt>
      <trkpt lat="46.79052" lon="-2.05777">
        <ele>13</ele>
        <time>2018-07-25T07:32:09Z</time>
      </trkpt>
      <trkpt lat="46.79044" lon="-2.05872">
        <ele>11.6</ele>
        <time>2018-07-25T07:32:16Z</time>
      </trkpt>
      <trkpt lat="46.79044" lon="-2.05912">
        <ele>11.3</ele>
        <time>2018-07-25T07:32:19Z</time>
      </trkpt>
      <trkpt lat="46.79044" lon="-2.05979">
        <ele>11.2</ele>
        <time>2018-07-25T07:32:24Z</time>
      </trkpt>
      <trkpt lat="46.79044" lon="-2.06044">
        <ele>11.6</ele>
        <time>2018-07-25T07:32:29Z</time>
      </trkpt>
      <trkpt lat="46.79044" lon="-2.06096">
        <ele>12</ele>
        <time>2018-07-25T07:32:34Z</time>
      </trkpt>
      <trkpt lat="46.79041" lon="-2.06175">
        <ele>13.3</ele>
        <time>2018-07-25T07:32:41Z</time>
      </trkpt>
      <trkpt lat="46.7904" lon="-2.06203">
        <ele>13.3</ele>
        <time>2018-07-25T07:32:44Z</time>
      </trkpt>
      <trkpt lat="46.79049" lon="-2.06279">
        <ele>14</ele>
        <time>2018-07-25T07:32:53Z</time>
      </trkpt>
      <trkpt lat="46.79047" lon="-2.06289">
        <ele>14</ele>
        <time>2018-07-25T07:32:54Z</time>
      </trkpt>
      <trkpt lat="46.79057" lon="-2.06356">
        <ele>14.2</ele>
        <time>2018-07-25T07:33:00Z</time>
      </trkpt>
      <trkpt lat="46.79083" lon="-2.06432">
        <ele>14.7</ele>
        <time>2018-07-25T07:33:07Z</time>
      </trkpt>
      <trkpt lat="46.79097" lon="-2.06454">
        <ele>15</ele>
        <time>2018-07-25T07:33:10Z</time>
      </trkpt>
      <trkpt lat="46.79105" lon="-2.06486">
        <ele>15</ele>
        <time>2018-07-25T07:33:14Z</time>
      </trkpt>
      <trkpt lat="46.79123" lon="-2.06544">
        <ele>16.8</ele>
        <time>2018-07-25T07:33:21Z</time>
      </trkpt>
      <trkpt lat="46.79135" lon="-2.06575">
        <ele>18</ele>
        <time>2018-07-25T07:33:24Z</time>
      </trkpt>
      <trkpt lat="46.79153" lon="-2.06626">
        <ele>18</ele>
        <time>2018-07-25T07:33:29Z</time>
      </trkpt>
      <trkpt lat="46.79166" lon="-2.06676">
        <ele>13.4</ele>
        <time>2018-07-25T07:33:34Z</time>
      </trkpt>
      <trkpt lat="46.79146" lon="-2.0672">
        <ele>18</ele>
        <time>2018-07-25T07:33:39Z</time>
      </trkpt>
      <trkpt lat="46.79132" lon="-2.06776">
        <ele>17.4</ele>
        <time>2018-07-25T07:33:44Z</time>
      </trkpt>
      <trkpt lat="46.79125" lon="-2.06845">
        <ele>16.9</ele>
        <time>2018-07-25T07:33:49Z</time>
      </trkpt>
      <trkpt lat="46.79107" lon="-2.06956">
        <ele>16.1</ele>
        <time>2018-07-25T07:33:56Z</time>
      </trkpt>
      <trkpt lat="46.79099" lon="-2.07008">
        <ele>15.5</ele>
        <time>2018-07-25T07:33:59Z</time>
      </trkpt>
      <trkpt lat="46.79074" lon="-2.07087">
        <ele>13.2</ele>
        <time>2018-07-25T07:34:04Z</time>
      </trkpt>
      <trkpt lat="46.79026" lon="-2.07168">
        <ele>9.9</ele>
        <time>2018-07-25T07:34:10Z</time>
      </trkpt>
      <trkpt lat="46.79002" lon="-2.07225">
        <ele>9.7</ele>
        <time>2018-07-25T07:34:14Z</time>
      </trkpt>
      <trkpt lat="46.78992" lon="-2.0737">
        <ele>6.9</ele>
        <time>2018-07-25T07:34:23Z</time>
      </trkpt>
      <trkpt lat="46.78994" lon="-2.07415">
        <ele>6.4</ele>
        <time>2018-07-25T07:34:26Z</time>
      </trkpt>
      <trkpt lat="46.78995" lon="-2.07503">
        <ele>5.4</ele>
        <time>2018-07-25T07:34:32Z</time>
      </trkpt>
      <trkpt lat="46.78997" lon="-2.07549">
        <ele>5</ele>
        <time>2018-07-25T07:34:35Z</time>
      </trkpt>
      <trkpt lat="46.79002" lon="-2.07634">
        <ele>4.9</ele>
        <time>2018-07-25T07:34:41Z</time>
      </trkpt>
      <trkpt lat="46.79001" lon="-2.07689">
        <ele>4.8</ele>
        <time>2018-07-25T07:34:45Z</time>
      </trkpt>
      <trkpt lat="46.79001" lon="-2.07741">
        <ele>4.6</ele>
        <time>2018-07-25T07:34:49Z</time>
      </trkpt>
      <trkpt lat="46.79004" lon="-2.07817">
        <ele>4.4</ele>
        <time>2018-07-25T07:34:55Z</time>
      </trkpt>
      <trkpt lat="46.79009" lon="-2.07919">
        <ele>4.1</ele>
        <time>2018-07-25T07:35:03Z</time>
      </trkpt>
      <trkpt lat="46.79012" lon="-2.07931">
        <ele>4</ele>
        <time>2018-07-25T07:35:04Z</time>
      </trkpt>
      <trkpt lat="46.79034" lon="-2.07991">
        <ele>4</ele>
        <time>2018-07-25T07:35:10Z</time>
      </trkpt>
      <trkpt lat="46.7907" lon="-2.08043">
        <ele>3.3</ele>
        <time>2018-07-25T07:35:16Z</time>
      </trkpt>
      <trkpt lat="46.79092" lon="-2.08066">
        <ele>3.1</ele>
        <time>2018-07-25T07:35:19Z</time>
      </trkpt>
      <trkpt lat="46.79132" lon="-2.08104">
        <ele>2.5</ele>
        <time>2018-07-25T07:35:24Z</time>
      </trkpt>
      <trkpt lat="46.79168" lon="-2.08137">
        <ele>2.8</ele>
        <time>2018-07-25T07:35:29Z</time>
      </trkpt>
      <trkpt lat="46.79239" lon="-2.08209">
        <ele>5.3</ele>
        <time>2018-07-25T07:35:38Z</time>
      </trkpt>
      <trkpt lat="46.79247" lon="-2.08217">
        <ele>5.3</ele>
        <time>2018-07-25T07:35:39Z</time>
      </trkpt>
      <trkpt lat="46.79318" lon="-2.08291">
        <ele>5.7</ele>
        <time>2018-07-25T07:35:48Z</time>
      </trkpt>
      <trkpt lat="46.79325" lon="-2.083">
        <ele>5.8</ele>
        <time>2018-07-25T07:35:49Z</time>
      </trkpt>
      <trkpt lat="46.79356" lon="-2.0835">
        <ele>6</ele>
        <time>2018-07-25T07:35:54Z</time>
      </trkpt>
      <trkpt lat="46.79384" lon="-2.08403">
        <ele>6</ele>
        <time>2018-07-25T07:35:59Z</time>
      </trkpt>
      <trkpt lat="46.79406" lon="-2.08457">
        <ele>5.9</ele>
        <time>2018-07-25T07:36:04Z</time>
      </trkpt>
      <trkpt lat="46.79419" lon="-2.08512">
        <ele>6</ele>
        <time>2018-07-25T07:36:09Z</time>
      </trkpt>
      <trkpt lat="46.79409" lon="-2.08572">
        <ele>5.8</ele>
        <time>2018-07-25T07:36:14Z</time>
      </trkpt>
      <trkpt lat="46.79399" lon="-2.08634">
        <ele>4.4</ele>
        <time>2018-07-25T07:36:19Z</time>
      </trkpt>
      <trkpt lat="46.79398" lon="-2.08687">
        <ele>3</ele>
        <time>2018-07-25T07:36:24Z</time>
      </trkpt>
      <trkpt lat="46.7939" lon="-2.08738">
        <ele>3.8</ele>
        <time>2018-07-25T07:36:29Z</time>
      </trkpt>
      <trkpt lat="46.79386" lon="-2.0879">
        <ele>5.9</ele>
        <time>2018-07-25T07:36:34Z</time>
      </trkpt>
      <trkpt lat="46.79353" lon="-2.08824">
        <ele>6.7</ele>
        <time>2018-07-25T07:36:39Z</time>
      </trkpt>
      <trkpt lat="46.79326" lon="-2.08851">
        <ele>7</ele>
        <time>2018-07-25T07:36:44Z</time>
      </trkpt>
      <trkpt lat="46.7931" lon="-2.08872">
        <ele>7</ele>
        <time>2018-07-25T07:36:49Z</time>
      </trkpt>
      <trkpt lat="46.79317" lon="-2.0893">
        <ele>6.8</ele>
        <time>2018-07-25T07:36:57Z</time>
      </trkpt>
      <trkpt lat="46.79322" lon="-2.08946">
        <ele>6.7</ele>
        <time>2018-07-25T07:36:59Z</time>
      </trkpt>
      <trkpt lat="46.79323" lon="-2.08983">
        <ele>6.4</ele>
        <time>2018-07-25T07:37:04Z</time>
      </trkpt>
      <trkpt lat="46.79327" lon="-2.08997">
        <ele>8</ele>
        <time>2018-07-25T07:37:09Z</time>
      </trkpt>
      <trkpt lat="46.79365" lon="-2.09038">
        <ele>8</ele>
        <time>2018-07-25T07:37:16Z</time>
      </trkpt>
      <trkpt lat="46.79389" lon="-2.09091">
        <ele>8</ele>
        <time>2018-07-25T07:37:22Z</time>
      </trkpt>
      <trkpt lat="46.79389" lon="-2.09104">
        <ele>8</ele>
        <time>2018-07-25T07:37:24Z</time>
      </trkpt>
      <trkpt lat="46.79384" lon="-2.09129">
        <ele>7.7</ele>
        <time>2018-07-25T07:37:29Z</time>
      </trkpt>
      <trkpt lat="46.794" lon="-2.09149">
        <ele>7.8</ele>
        <time>2018-07-25T07:37:35Z</time>
      </trkpt>
      <trkpt lat="46.7941" lon="-2.09154">
        <ele>7.9</ele>
        <time>2018-07-25T07:37:39Z</time>
      </trkpt>
      <trkpt lat="46.79412" lon="-2.0916">
        <ele>8</ele>
        <time>2018-07-25T07:37:44Z</time>
      </trkpt>
      <trkpt lat="46.7939" lon="-2.0914">
        <ele>7.6</ele>
        <time>2018-07-25T07:37:49Z</time>
      </trkpt>
      <trkpt lat="46.79372" lon="-2.09108">
        <ele>8</ele>
        <time>2018-07-25T07:37:54Z</time>
      </trkpt>
      <trkpt lat="46.79355" lon="-2.0907">
        <ele>8.2</ele>
        <time>2018-07-25T07:37:59Z</time>
      </trkpt>
      <trkpt lat="46.79343" lon="-2.09037">
        <ele>8.2</ele>
        <time>2018-07-25T07:38:05Z</time>
      </trkpt>
      <trkpt lat="46.79325" lon="-2.09012">
        <ele>8</ele>
        <time>2018-07-25T07:38:09Z</time>
      </trkpt>
      <trkpt lat="46.79309" lon="-2.0893">
        <ele>6.9</ele>
        <time>2018-07-25T07:38:18Z</time>
      </trkpt>
      <trkpt lat="46.79302" lon="-2.08914">
        <ele>7</ele>
        <time>2018-07-25T07:38:20Z</time>
      </trkpt>
      <trkpt lat="46.79286" lon="-2.08898">
        <ele>7</ele>
        <time>2018-07-25T07:38:24Z</time>
      </trkpt>
      <trkpt lat="46.79319" lon="-2.08851">
        <ele>7</ele>
        <time>2018-07-25T07:38:33Z</time>
      </trkpt>
      <trkpt lat="46.79324" lon="-2.08844">
        <ele>7</ele>
        <time>2018-07-25T07:38:34Z</time>
      </trkpt>
      <trkpt lat="46.79376" lon="-2.08796">
        <ele>6.4</ele>
        <time>2018-07-25T07:38:42Z</time>
      </trkpt>
      <trkpt lat="46.79387" lon="-2.08782">
        <ele>5.8</ele>
        <time>2018-07-25T07:38:44Z</time>
      </trkpt>
      <trkpt lat="46.79387" lon="-2.0873">
        <ele>3.5</ele>
        <time>2018-07-25T07:38:49Z</time>
      </trkpt>
      <trkpt lat="46.79378" lon="-2.08692">
        <ele>3</ele>
        <time>2018-07-25T07:38:54Z</time>
      </trkpt>
      <trkpt lat="46.79396" lon="-2.08659">
        <ele>3.7</ele>
        <time>2018-07-25T07:38:59Z</time>
      </trkpt>
      <trkpt lat="46.79408" lon="-2.08569">
        <ele>5.9</ele>
        <time>2018-07-25T07:39:07Z</time>
      </trkpt>
      <trkpt lat="46.7941" lon="-2.08544">
        <ele>6</ele>
        <time>2018-07-25T07:39:09Z</time>
      </trkpt>
      <trkpt lat="46.79417" lon="-2.08489">
        <ele>6</ele>
        <time>2018-07-25T07:39:14Z</time>
      </trkpt>
      <trkpt lat="46.79387" lon="-2.08426">
        <ele>6</ele>
        <time>2018-07-25T07:39:21Z</time>
      </trkpt>
      <trkpt lat="46.79372" lon="-2.08407">
        <ele>6</ele>
        <time>2018-07-25T07:39:24Z</time>
      </trkpt>
      <trkpt lat="46.79332" lon="-2.08358">
        <ele>5.9</ele>
        <time>2018-07-25T07:39:30Z</time>
      </trkpt>
      <trkpt lat="46.79308" lon="-2.08324">
        <ele>5.7</ele>
        <time>2018-07-25T07:39:34Z</time>
      </trkpt>
      <trkpt lat="46.79269" lon="-2.08278">
        <ele>5.5</ele>
        <time>2018-07-25T07:39:40Z</time>
      </trkpt>
      <trkpt lat="46.79245" lon="-2.08252">
        <ele>5.3</ele>
        <time>2018-07-25T07:39:44Z</time>
      </trkpt>
      <trkpt lat="46.79208" lon="-2.08219">
        <ele>5</ele>
        <time>2018-07-25T07:39:50Z</time>
      </trkpt>
      <trkpt lat="46.7917" lon="-2.08183">
        <ele>4.1</ele>
        <time>2018-07-25T07:39:56Z</time>
      </trkpt>
      <trkpt lat="46.79147" lon="-2.08165">
        <ele>2</ele>
        <time>2018-07-25T07:39:59Z</time>
      </trkpt>
      <trkpt lat="46.79088" lon="-2.08106">
        <ele>2.8</ele>
        <time>2018-07-25T07:40:07Z</time>
      </trkpt>
      <trkpt lat="46.79073" lon="-2.08093">
        <ele>3</ele>
        <time>2018-07-25T07:40:09Z</time>
      </trkpt>
      <trkpt lat="46.79009" lon="-2.0805">
        <ele>4</ele>
        <time>2018-07-25T07:40:18Z</time>
      </trkpt>
      <trkpt lat="46.7899" lon="-2.08041">
        <ele>4.4</ele>
        <time>2018-07-25T07:40:21Z</time>
      </trkpt>
      <trkpt lat="46.7897" lon="-2.08033">
        <ele>5</ele>
        <time>2018-07-25T07:40:24Z</time>
      </trkpt>
      <trkpt lat="46.78932" lon="-2.08029">
        <ele>5.6</ele>
        <time>2018-07-25T07:40:29Z</time>
      </trkpt>
      <trkpt lat="46.78873" lon="-2.08038">
        <ele>6</ele>
        <time>2018-07-25T07:40:37Z</time>
      </trkpt>
      <trkpt lat="46.78857" lon="-2.08041">
        <ele>6</ele>
        <time>2018-07-25T07:40:39Z</time>
      </trkpt>
      <trkpt lat="46.78787" lon="-2.08052">
        <ele>6.2</ele>
        <time>2018-07-25T07:40:47Z</time>
      </trkpt>
      <trkpt lat="46.78754" lon="-2.08047">
        <ele>7</ele>
        <time>2018-07-25T07:40:51Z</time>
      </trkpt>
      <trkpt lat="46.78711" lon="-2.08021">
        <ele>7</ele>
        <time>2018-07-25T07:40:58Z</time>
      </trkpt>
      <trkpt lat="46.78707" lon="-2.08017">
        <ele>7</ele>
        <time>2018-07-25T07:40:59Z</time>
      </trkpt>
      <trkpt lat="46.78667" lon="-2.07953">
        <ele>7.6</ele>
        <time>2018-07-25T07:41:08Z</time>
      </trkpt>
      <trkpt lat="46.78665" lon="-2.07945">
        <ele>7.7</ele>
        <time>2018-07-25T07:41:09Z</time>
      </trkpt>
      <trkpt lat="46.7865" lon="-2.07921">
        <ele>8</ele>
        <time>2018-07-25T07:41:15Z</time>
      </trkpt>
      <trkpt lat="46.78637" lon="-2.07919">
        <ele>8</ele>
        <time>2018-07-25T07:41:19Z</time>
      </trkpt>
      <trkpt lat="46.78643" lon="-2.07927">
        <ele>8</ele>
        <time>2018-07-25T07:57:42Z</time>
      </trkpt>
      <trkpt lat="46.78644" lon="-2.07924">
        <ele>8</ele>
        <time>2018-07-25T07:57:45Z</time>
      </trkpt>
      <trkpt lat="46.78637" lon="-2.07897">
        <ele>7</ele>
        <time>2018-07-25T07:57:53Z</time>
      </trkpt>
      <trkpt lat="46.78633" lon="-2.07886">
        <ele>7</ele>
        <time>2018-07-25T07:57:55Z</time>
      </trkpt>
      <trkpt lat="46.78622" lon="-2.07851">
        <ele>5</ele>
        <time>2018-07-25T07:58:00Z</time>
      </trkpt>
      <trkpt lat="46.786" lon="-2.07809">
        <ele>2.4</ele>
        <time>2018-07-25T07:58:05Z</time>
      </trkpt>
      <trkpt lat="46.78581" lon="-2.07766">
        <ele>5.3</ele>
        <time>2018-07-25T07:58:10Z</time>
      </trkpt>
      <trkpt lat="46.78549" lon="-2.07693">
        <ele>4.8</ele>
        <time>2018-07-25T07:58:18Z</time>
      </trkpt>
      <trkpt lat="46.78541" lon="-2.07671">
        <ele>3</ele>
        <time>2018-07-25T07:58:20Z</time>
      </trkpt>
      <trkpt lat="46.78516" lon="-2.07614">
        <ele>5.2</ele>
        <time>2018-07-25T07:58:26Z</time>
      </trkpt>
      <trkpt lat="46.78494" lon="-2.07572">
        <ele>7</ele>
        <time>2018-07-25T07:58:30Z</time>
      </trkpt>
      <trkpt lat="46.78475" lon="-2.07515">
        <ele>6.3</ele>
        <time>2018-07-25T07:58:35Z</time>
      </trkpt>
      <trkpt lat="46.78447" lon="-2.07445">
        <ele>-4.4</ele>
        <time>2018-07-25T07:58:42Z</time>
      </trkpt>
      <trkpt lat="46.78435" lon="-2.07418">
        <ele>1.2</ele>
        <time>2018-07-25T07:58:45Z</time>
      </trkpt>
      <trkpt lat="46.78396" lon="-2.07332">
        <ele>7</ele>
        <time>2018-07-25T07:58:54Z</time>
      </trkpt>
      <trkpt lat="46.78392" lon="-2.07322">
        <ele>6.1</ele>
        <time>2018-07-25T07:58:55Z</time>
      </trkpt>
      <trkpt lat="46.78367" lon="-2.07269">
        <ele>-2</ele>
        <time>2018-07-25T07:59:01Z</time>
      </trkpt>
      <trkpt lat="46.78341" lon="-2.07207">
        <ele>6</ele>
        <time>2018-07-25T07:59:08Z</time>
      </trkpt>
      <trkpt lat="46.78329" lon="-2.0719">
        <ele>6</ele>
        <time>2018-07-25T07:59:10Z</time>
      </trkpt>
      <trkpt lat="46.78303" lon="-2.07143">
        <ele>3.5</ele>
        <time>2018-07-25T07:59:15Z</time>
      </trkpt>
      <trkpt lat="46.7828" lon="-2.07095">
        <ele>-2</ele>
        <time>2018-07-25T07:59:20Z</time>
      </trkpt>
      <trkpt lat="46.78251" lon="-2.07034">
        <ele>5.3</ele>
        <time>2018-07-25T07:59:27Z</time>
      </trkpt>
      <trkpt lat="46.78234" lon="-2.07008">
        <ele>5.5</ele>
        <time>2018-07-25T07:59:30Z</time>
      </trkpt>
      <trkpt lat="46.78195" lon="-2.06944">
        <ele>5.8</ele>
        <time>2018-07-25T07:59:37Z</time>
      </trkpt>
      <trkpt lat="46.78171" lon="-2.06898">
        <ele>6</ele>
        <time>2018-07-25T07:59:42Z</time>
      </trkpt>
      <trkpt lat="46.78156" lon="-2.06874">
        <ele>6.3</ele>
        <time>2018-07-25T07:59:45Z</time>
      </trkpt>
      <trkpt lat="46.78127" lon="-2.06784">
        <ele>6.8</ele>
        <time>2018-07-25T07:59:54Z</time>
      </trkpt>
      <trkpt lat="46.78119" lon="-2.0677">
        <ele>6.9</ele>
        <time>2018-07-25T07:59:56Z</time>
      </trkpt>
      <trkpt lat="46.78075" lon="-2.06717">
        <ele>7</ele>
        <time>2018-07-25T08:00:03Z</time>
      </trkpt>
      <trkpt lat="46.78063" lon="-2.0671">
        <ele>7</ele>
        <time>2018-07-25T08:00:05Z</time>
      </trkpt>
      <trkpt lat="46.78028" lon="-2.06655">
        <ele>8.3</ele>
        <time>2018-07-25T08:00:11Z</time>
      </trkpt>
      <trkpt lat="46.78001" lon="-2.06601">
        <ele>9.6</ele>
        <time>2018-07-25T08:00:18Z</time>
      </trkpt>
      <trkpt lat="46.77988" lon="-2.06587">
        <ele>9.1</ele>
        <time>2018-07-25T08:00:20Z</time>
      </trkpt>
      <trkpt lat="46.77946" lon="-2.06508">
        <ele>9</ele>
        <time>2018-07-25T08:00:28Z</time>
      </trkpt>
      <trkpt lat="46.77943" lon="-2.06486">
        <ele>9</ele>
        <time>2018-07-25T08:00:30Z</time>
      </trkpt>
      <trkpt lat="46.77943" lon="-2.06428">
        <ele>8.4</ele>
        <time>2018-07-25T08:00:35Z</time>
      </trkpt>
      <trkpt lat="46.77919" lon="-2.06377">
        <ele>5.3</ele>
        <time>2018-07-25T08:00:40Z</time>
      </trkpt>
      <trkpt lat="46.7788" lon="-2.06354">
        <ele>5</ele>
        <time>2018-07-25T08:00:45Z</time>
      </trkpt>
      <trkpt lat="46.77836" lon="-2.0632">
        <ele>6.8</ele>
        <time>2018-07-25T08:00:52Z</time>
      </trkpt>
      <trkpt lat="46.77804" lon="-2.06266">
        <ele>5.8</ele>
        <time>2018-07-25T08:00:58Z</time>
      </trkpt>
      <trkpt lat="46.77794" lon="-2.06248">
        <ele>3.6</ele>
        <time>2018-07-25T08:01:00Z</time>
      </trkpt>
      <trkpt lat="46.77767" lon="-2.06202">
        <ele>5.4</ele>
        <time>2018-07-25T08:01:05Z</time>
      </trkpt>
      <trkpt lat="46.7774" lon="-2.06154">
        <ele>8</ele>
        <time>2018-07-25T08:01:10Z</time>
      </trkpt>
      <trkpt lat="46.77711" lon="-2.06106">
        <ele>8</ele>
        <time>2018-07-25T08:01:15Z</time>
      </trkpt>
      <trkpt lat="46.77681" lon="-2.0606">
        <ele>3.1</ele>
        <time>2018-07-25T08:01:20Z</time>
      </trkpt>
      <trkpt lat="46.77651" lon="-2.06014">
        <ele>1</ele>
        <time>2018-07-25T08:01:25Z</time>
      </trkpt>
      <trkpt lat="46.77622" lon="-2.05969">
        <ele>1.6</ele>
        <time>2018-07-25T08:01:30Z</time>
      </trkpt>
      <trkpt lat="46.7759" lon="-2.05923">
        <ele>6</ele>
        <time>2018-07-25T08:01:35Z</time>
      </trkpt>
      <trkpt lat="46.77561" lon="-2.05879">
        <ele>7.6</ele>
        <time>2018-07-25T08:01:40Z</time>
      </trkpt>
      <trkpt lat="46.77532" lon="-2.05837">
        <ele>7.6</ele>
        <time>2018-07-25T08:01:45Z</time>
      </trkpt>
      <trkpt lat="46.77503" lon="-2.05795">
        <ele>7</ele>
        <time>2018-07-25T08:01:50Z</time>
      </trkpt>
      <trkpt lat="46.77476" lon="-2.05758">
        <ele>6.5</ele>
        <time>2018-07-25T08:01:55Z</time>
      </trkpt>
      <trkpt lat="46.77446" lon="-2.05718">
        <ele>5.9</ele>
        <time>2018-07-25T08:02:00Z</time>
      </trkpt>
      <trkpt lat="46.77416" lon="-2.05678">
        <ele>5.3</ele>
        <time>2018-07-25T08:02:05Z</time>
      </trkpt>
      <trkpt lat="46.77386" lon="-2.05644">
        <ele>4.9</ele>
        <time>2018-07-25T08:02:10Z</time>
      </trkpt>
      <trkpt lat="46.77361" lon="-2.05606">
        <ele>4.5</ele>
        <time>2018-07-25T08:02:15Z</time>
      </trkpt>
      <trkpt lat="46.77333" lon="-2.05565">
        <ele>3.9</ele>
        <time>2018-07-25T08:02:20Z</time>
      </trkpt>
      <trkpt lat="46.77303" lon="-2.05526">
        <ele>3.3</ele>
        <time>2018-07-25T08:02:25Z</time>
      </trkpt>
      <trkpt lat="46.77275" lon="-2.05486">
        <ele>4.1</ele>
        <time>2018-07-25T08:02:30Z</time>
      </trkpt>
      <trkpt lat="46.77245" lon="-2.05448">
        <ele>7</ele>
        <time>2018-07-25T08:02:35Z</time>
      </trkpt>
      <trkpt lat="46.77215" lon="-2.0541">
        <ele>1</ele>
        <time>2018-07-25T08:02:40Z</time>
      </trkpt>
      <trkpt lat="46.77188" lon="-2.05369">
        <ele>1</ele>
        <time>2018-07-25T08:02:45Z</time>
      </trkpt>
      <trkpt lat="46.77159" lon="-2.05335">
        <ele>5.7</ele>
        <time>2018-07-25T08:02:50Z</time>
      </trkpt>
      <trkpt lat="46.77134" lon="-2.05297">
        <ele>7</ele>
        <time>2018-07-25T08:02:55Z</time>
      </trkpt>
      <trkpt lat="46.77127" lon="-2.05267">
        <ele>7</ele>
        <time>2018-07-25T08:03:00Z</time>
      </trkpt>
      <trkpt lat="46.77147" lon="-2.05263">
        <ele>8</ele>
        <time>2018-07-25T08:03:05Z</time>
      </trkpt>
      <trkpt lat="46.77171" lon="-2.05229">
        <ele>7.1</ele>
        <time>2018-07-25T08:03:10Z</time>
      </trkpt>
      <trkpt lat="46.77195" lon="-2.0518">
        <ele>6.3</ele>
        <time>2018-07-25T08:03:15Z</time>
      </trkpt>
      <trkpt lat="46.7722" lon="-2.05125">
        <ele>5.9</ele>
        <time>2018-07-25T08:03:20Z</time>
      </trkpt>
      <trkpt lat="46.77245" lon="-2.0507">
        <ele>5.1</ele>
        <time>2018-07-25T08:03:25Z</time>
      </trkpt>
      <trkpt lat="46.77283" lon="-2.04977">
        <ele>4</ele>
        <time>2018-07-25T08:03:33Z</time>
      </trkpt>
      <trkpt lat="46.77302" lon="-2.0493">
        <ele>4</ele>
        <time>2018-07-25T08:03:37Z</time>
      </trkpt>
      <trkpt lat="46.77321" lon="-2.04895">
        <ele>3.8</ele>
        <time>2018-07-25T08:03:40Z</time>
      </trkpt>
      <trkpt lat="46.77349" lon="-2.04835">
        <ele>3.8</ele>
        <time>2018-07-25T08:03:45Z</time>
      </trkpt>
      <trkpt lat="46.77374" lon="-2.04778">
        <ele>3.4</ele>
        <time>2018-07-25T08:03:50Z</time>
      </trkpt>
      <trkpt lat="46.77401" lon="-2.04719">
        <ele>2.8</ele>
        <time>2018-07-25T08:03:58Z</time>
      </trkpt>
      <trkpt lat="46.77407" lon="-2.04704">
        <ele>2.6</ele>
        <time>2018-07-25T08:04:00Z</time>
      </trkpt>
      <trkpt lat="46.77425" lon="-2.04666">
        <ele>2.4</ele>
        <time>2018-07-25T08:04:05Z</time>
      </trkpt>
      <trkpt lat="46.77454" lon="-2.04597">
        <ele>2.1</ele>
        <time>2018-07-25T08:04:14Z</time>
      </trkpt>
      <trkpt lat="46.77449" lon="-2.04568">
        <ele>3.1</ele>
        <time>2018-07-25T08:04:18Z</time>
      </trkpt>
      <trkpt lat="46.77444" lon="-2.04554">
        <ele>3.1</ele>
        <time>2018-07-25T08:04:20Z</time>
      </trkpt>
      <trkpt lat="46.77431" lon="-2.04521">
        <ele>3</ele>
        <time>2018-07-25T08:04:25Z</time>
      </trkpt>
      <trkpt lat="46.77443" lon="-2.04491">
        <ele>2.2</ele>
        <time>2018-07-25T08:04:30Z</time>
      </trkpt>
      <trkpt lat="46.77433" lon="-2.04462">
        <ele>1.7</ele>
        <time>2018-07-25T08:04:35Z</time>
      </trkpt>
      <trkpt lat="46.77411" lon="-2.04453">
        <ele>1.4</ele>
        <time>2018-07-25T08:04:40Z</time>
      </trkpt>
      <trkpt lat="46.77407" lon="-2.04482">
        <ele>1</ele>
        <time>2018-07-25T08:04:45Z</time>
      </trkpt>
      <trkpt lat="46.77397" lon="-2.04485">
        <ele>1.1</ele>
        <time>2018-07-25T08:04:50Z</time>
      </trkpt>
      <trkpt lat="46.77406" lon="-2.04457">
        <ele>1.4</ele>
        <time>2018-07-25T08:04:55Z</time>
      </trkpt>
      <trkpt lat="46.77433" lon="-2.0446">
        <ele>1.7</ele>
        <time>2018-07-25T08:05:00Z</time>
      </trkpt>
      <trkpt lat="46.77447" lon="-2.04489">
        <ele>2.2</ele>
        <time>2018-07-25T08:05:05Z</time>
      </trkpt>
      <trkpt lat="46.77436" lon="-2.04524">
        <ele>3</ele>
        <time>2018-07-25T08:05:10Z</time>
      </trkpt>
      <trkpt lat="46.77449" lon="-2.04556">
        <ele>3.1</ele>
        <time>2018-07-25T08:05:15Z</time>
      </trkpt>
      <trkpt lat="46.77458" lon="-2.04587">
        <ele>2.7</ele>
        <time>2018-07-25T08:05:20Z</time>
      </trkpt>
      <trkpt lat="46.77451" lon="-2.04597">
        <ele>2</ele>
        <time>2018-07-25T08:05:25Z</time>
      </trkpt>
    </trkseg>
  </trk>
</gpx>